UAE57X EDDH-OMDB
Flight info
| Callsign | UAE57X |
|---|---|
| Flight time | 6h 38m |
| Altitude | 35000 |
| Route | AMLUH2G AMLUH M852 DENIX DCT ZUCKA DCT ARMUT DCT LAMSI DCT LIDSI DCT RADLY DCT PODET DCT TAZ DCT PETAK DCT DIMIS DCT SALUN N705 MMA P751 DASUM Y234 FYM M872 SIKNO/N0496F370 M872 BDB Y214 RAPMA DCT KUVSO DCT KATIT DCT PEKEM M628 RIGIL G783 ELUDA/N0501F350 G783 ASPED Q308 KIPOK Q568 IMPED IMPED3C |
| Aircraft | B77W/H-SDE1E2E3FGHIJ2J3J4J5M1RWXY/LB1D1 |
Departure
| Time | 2026-04-26 11:16 |
|---|---|
| Airport | Hamburg Helmut Schmidt Airport (EDDH) |
Arrival
| Time | 2026-04-26 17:54 |
|---|---|
| Airport | Dubai International Airport (OMDB) |
| Time | Latitude | Longitude | Altitude | Speed | Heading |
|---|---|---|---|---|---|
| 2026-04-26 10:02 | 53.63356 | 10.00343 | 49 ft | 0 kts | 86° |
| 2026-04-26 11:01 | 53.63356 | 10.00328 | 48 ft | 2 kts | 86° |
| 2026-04-26 11:01 | 53.63355 | 10.00304 | 48 ft | 2 kts | 86° |
| 2026-04-26 11:02 | 53.63354 | 10.00278 | 47 ft | 2 kts | 86° |
| 2026-04-26 11:02 | 53.63353 | 10.00254 | 47 ft | 2 kts | 86° |
| 2026-04-26 11:02 | 53.63353 | 10.00229 | 46 ft | 2 kts | 104° |
| 2026-04-26 11:02 | 53.63359 | 10.00208 | 46 ft | 2 kts | 136° |
| 2026-04-26 11:03 | 53.63372 | 10.00194 | 46 ft | 2 kts | 166° |
| 2026-04-26 11:03 | 53.63387 | 10.00192 | 46 ft | 2 kts | 181° |
| 2026-04-26 11:03 | 53.63402 | 10.00192 | 46 ft | 2 kts | 178° |
| 2026-04-26 11:03 | 53.63407 | 10.00191 | 46 ft | 0 kts | 176° |
| 2026-04-26 11:09 | 53.63404 | 10.00191 | 46 ft | 1 kts | 176° |
| 2026-04-26 11:09 | 53.63374 | 10.00194 | 46 ft | 6 kts | 176° |
| 2026-04-26 11:09 | 53.63326 | 10.00199 | 45 ft | 7 kts | 176° |
| 2026-04-26 11:09 | 53.63282 | 10.00205 | 45 ft | 6 kts | 175° |
| 2026-04-26 11:10 | 53.63238 | 10.00210 | 44 ft | 6 kts | 175° |
| 2026-04-26 11:10 | 53.63192 | 10.00216 | 44 ft | 7 kts | 176° |
| 2026-04-26 11:10 | 53.63143 | 10.00221 | 43 ft | 6 kts | 176° |
| 2026-04-26 11:10 | 53.63104 | 10.00225 | 44 ft | 4 kts | 177° |
| 2026-04-26 11:11 | 53.63080 | 10.00222 | 44 ft | 4 kts | 190° |
| 2026-04-26 11:11 | 53.63052 | 10.00203 | 44 ft | 4 kts | 210° |
| 2026-04-26 11:11 | 53.63021 | 10.00171 | 44 ft | 5 kts | 211° |
| 2026-04-26 11:11 | 53.62988 | 10.00136 | 44 ft | 7 kts | 212° |
| 2026-04-26 11:12 | 53.62942 | 10.00088 | 43 ft | 8 kts | 212° |
| 2026-04-26 11:12 | 53.62912 | 10.00056 | 42 ft | 4 kts | 206° |
| 2026-04-26 11:12 | 53.62883 | 10.00039 | 42 ft | 4 kts | 204° |
| 2026-04-26 11:12 | 53.62862 | 10.00004 | 41 ft | 5 kts | 234° |
| 2026-04-26 11:13 | 53.62857 | 9.99991 | 41 ft | 0 kts | 236° |
| 2026-04-26 11:13 | 53.62845 | 9.99958 | 40 ft | 6 kts | 239° |
| 2026-04-26 11:13 | 53.62822 | 9.99890 | 39 ft | 7 kts | 241° |
| 2026-04-26 11:13 | 53.62808 | 9.99819 | 39 ft | 5 kts | 286° |
| 2026-04-26 11:14 | 53.62829 | 9.99783 | 38 ft | 0 kts | 330° |
| 2026-04-26 11:15 | 53.62837 | 9.99775 | 38 ft | 9 kts | 330° |
| 2026-04-26 11:15 | 53.63078 | 9.99562 | 37 ft | 73 kts | 332° |
| 2026-04-26 11:15 | 53.63722 | 9.99008 | 41 ft | 132 kts | 333° |
| 2026-04-26 11:15 | 53.64685 | 9.98173 | 110 ft | 172 kts | 332° |
| 2026-04-26 11:16 | 53.65734 | 9.97288 | 694 ft | 169 kts | 333° |
| 2026-04-26 11:16 | 53.66768 | 9.96402 | 1269 ft | 178 kts | 333° |
| 2026-04-26 11:16 | 53.67851 | 9.95469 | 1923 ft | 179 kts | 333° |
| 2026-04-26 11:16 | 53.69054 | 9.94724 | 2095 ft | 196 kts | 352° |
| 2026-04-26 11:17 | 53.70460 | 9.94653 | 2271 ft | 214 kts | 0° |
| 2026-04-26 11:17 | 53.72005 | 9.94701 | 2527 ft | 230 kts | 5° |
| 2026-04-26 11:17 | 53.73575 | 9.95607 | 2772 ft | 248 kts | 36° |
| 2026-04-26 11:17 | 53.74651 | 9.97905 | 3212 ft | 257 kts | 70° |
| 2026-04-26 11:18 | 53.74792 | 10.00848 | 3775 ft | 261 kts | 101° |
| 2026-04-26 11:18 | 53.74454 | 10.02854 | 4202 ft | 263 kts | 111° |
| 2026-04-26 11:18 | 53.73239 | 10.06451 | 4882 ft | 271 kts | 119° |
| 2026-04-26 11:18 | 53.72348 | 10.09112 | 4965 ft | 270 kts | 118° |
| 2026-04-26 11:19 | 53.71450 | 10.11834 | 4976 ft | 269 kts | 118° |
| 2026-04-26 11:19 | 53.70522 | 10.14628 | 5382 ft | 276 kts | 118° |
| 2026-04-26 11:19 | 53.69585 | 10.17426 | 6165 ft | 273 kts | 119° |
| 2026-04-26 11:19 | 53.68375 | 10.19877 | 6622 ft | 279 kts | 143° |
| 2026-04-26 11:20 | 53.66622 | 10.21355 | 7125 ft | 284 kts | 162° |
| 2026-04-26 11:20 | 53.65362 | 10.21998 | 7511 ft | 285 kts | 165° |
| 2026-04-26 11:20 | 53.62765 | 10.23181 | 8172 ft | 293 kts | 165° |
| 2026-04-26 11:20 | 53.60768 | 10.24087 | 8680 ft | 298 kts | 165° |
| 2026-04-26 11:21 | 53.58714 | 10.25026 | 9211 ft | 302 kts | 165° |
| 2026-04-26 11:21 | 53.56678 | 10.25958 | 9705 ft | 306 kts | 165° |
| 2026-04-26 11:21 | 53.54608 | 10.26906 | 10175 ft | 311 kts | 165° |
| 2026-04-26 11:21 | 53.52488 | 10.27875 | 10614 ft | 318 kts | 165° |
| 2026-04-26 11:22 | 53.50288 | 10.28880 | 10792 ft | 336 kts | 165° |
| 2026-04-26 11:22 | 53.47963 | 10.29940 | 11011 ft | 352 kts | 165° |
| 2026-04-26 11:22 | 53.45547 | 10.31041 | 11223 ft | 368 kts | 165° |
| 2026-04-26 11:22 | 53.43015 | 10.32194 | 11483 ft | 384 kts | 165° |
| 2026-04-26 11:23 | 53.40390 | 10.33382 | 11747 ft | 399 kts | 166° |
| 2026-04-26 11:23 | 53.37648 | 10.34615 | 12145 ft | 410 kts | 166° |
| 2026-04-26 11:23 | 53.34860 | 10.35868 | 12745 ft | 416 kts | 166° |
| 2026-04-26 11:23 | 53.32061 | 10.37125 | 13464 ft | 420 kts | 166° |
| 2026-04-26 11:24 | 53.29202 | 10.38406 | 14150 ft | 425 kts | 166° |
| 2026-04-26 11:24 | 53.26347 | 10.39685 | 14974 ft | 429 kts | 166° |
| 2026-04-26 11:24 | 53.23459 | 10.40977 | 15825 ft | 432 kts | 166° |
| 2026-04-26 11:24 | 53.20542 | 10.42279 | 16658 ft | 436 kts | 166° |
| 2026-04-26 11:25 | 53.17576 | 10.43601 | 17433 ft | 440 kts | 167° |
| 2026-04-26 11:25 | 53.14621 | 10.44917 | 18170 ft | 446 kts | 167° |
| 2026-04-26 11:25 | 53.11657 | 10.46216 | 18922 ft | 449 kts | 169° |
| 2026-04-26 11:25 | 53.08559 | 10.47219 | 19698 ft | 451 kts | 172° |
| 2026-04-26 11:26 | 53.05435 | 10.48146 | 20456 ft | 455 kts | 172° |
| 2026-04-26 11:26 | 53.02340 | 10.49071 | 21198 ft | 459 kts | 172° |
| 2026-04-26 11:26 | 52.99192 | 10.50022 | 21931 ft | 462 kts | 172° |
| 2026-04-26 11:26 | 52.96043 | 10.50979 | 22623 ft | 467 kts | 172° |
| 2026-04-26 11:27 | 52.92803 | 10.51969 | 23271 ft | 471 kts | 172° |
| 2026-04-26 11:27 | 52.89545 | 10.52967 | 23933 ft | 475 kts | 172° |
| 2026-04-26 11:27 | 52.86288 | 10.53966 | 24569 ft | 479 kts | 172° |
| 2026-04-26 11:27 | 52.82997 | 10.54976 | 25159 ft | 483 kts | 172° |
| 2026-04-26 11:28 | 52.79765 | 10.55967 | 25746 ft | 486 kts | 172° |
| 2026-04-26 11:28 | 52.76407 | 10.56997 | 26340 ft | 489 kts | 172° |
| 2026-04-26 11:28 | 52.73045 | 10.58027 | 26927 ft | 492 kts | 172° |
| 2026-04-26 11:28 | 52.69703 | 10.59050 | 27494 ft | 495 kts | 172° |
| 2026-04-26 11:29 | 52.66326 | 10.60082 | 28077 ft | 498 kts | 172° |
| 2026-04-26 11:29 | 52.62868 | 10.61138 | 28613 ft | 501 kts | 172° |
| 2026-04-26 11:29 | 52.59502 | 10.62164 | 29143 ft | 504 kts | 172° |
| 2026-04-26 11:29 | 52.56067 | 10.63210 | 29694 ft | 506 kts | 172° |
| 2026-04-26 11:30 | 52.52631 | 10.64256 | 30349 ft | 506 kts | 172° |
| 2026-04-26 11:30 | 52.50348 | 10.64950 | 30864 ft | 504 kts | 172° |
| 2026-04-26 11:30 | 52.45855 | 10.66314 | 31917 ft | 497 kts | 173° |
| 2026-04-26 11:30 | 52.42507 | 10.67328 | 32602 ft | 494 kts | 173° |
| 2026-04-26 11:31 | 52.39169 | 10.68337 | 33191 ft | 493 kts | 173° |
| 2026-04-26 11:31 | 52.36001 | 10.69292 | 33682 ft | 492 kts | 173° |
| 2026-04-26 11:31 | 52.32690 | 10.70290 | 34189 ft | 490 kts | 173° |
| 2026-04-26 11:31 | 52.29397 | 10.71281 | 34722 ft | 488 kts | 173° |
| 2026-04-26 11:32 | 52.26129 | 10.72263 | 35180 ft | 486 kts | 173° |
| 2026-04-26 11:32 | 52.22824 | 10.73253 | 35307 ft | 489 kts | 173° |
| 2026-04-26 11:32 | 52.16190 | 10.75238 | 35316 ft | 485 kts | 173° |
| 2026-04-26 11:33 | 52.09634 | 10.77193 | 35313 ft | 486 kts | 173° |
| 2026-04-26 11:33 | 52.03003 | 10.79165 | 35316 ft | 485 kts | 173° |
| 2026-04-26 11:34 | 51.96434 | 10.81113 | 35315 ft | 485 kts | 173° |
| 2026-04-26 11:34 | 51.89834 | 10.83064 | 35311 ft | 485 kts | 173° |
| 2026-04-26 11:35 | 51.83340 | 10.84978 | 35305 ft | 484 kts | 173° |
| 2026-04-26 11:35 | 51.77937 | 10.86566 | 35296 ft | 484 kts | 173° |
| 2026-04-26 11:36 | 51.70367 | 10.88787 | 35291 ft | 483 kts | 172° |
| 2026-04-26 11:36 | 51.64039 | 10.92162 | 35290 ft | 489 kts | 158° |
| 2026-04-26 11:37 | 51.57948 | 10.96815 | 35285 ft | 490 kts | 157° |
| 2026-04-26 11:37 | 51.51958 | 11.01394 | 35293 ft | 490 kts | 157° |
| 2026-04-26 11:38 | 51.46034 | 11.05901 | 35299 ft | 489 kts | 157° |
| 2026-04-26 11:38 | 51.39916 | 11.10537 | 35302 ft | 489 kts | 157° |
| 2026-04-26 11:39 | 51.33870 | 11.15103 | 35298 ft | 488 kts | 157° |
| 2026-04-26 11:39 | 51.27767 | 11.19696 | 35300 ft | 488 kts | 157° |
| 2026-04-26 11:40 | 51.21722 | 11.24231 | 35297 ft | 487 kts | 157° |
| 2026-04-26 11:40 | 51.15739 | 11.28707 | 35297 ft | 487 kts | 157° |
| 2026-04-26 11:42 | 50.91558 | 11.46664 | 35306 ft | 487 kts | 157° |
| 2026-04-26 11:43 | 50.85533 | 11.51106 | 35310 ft | 488 kts | 157° |
| 2026-04-26 11:43 | 50.79424 | 11.55597 | 35304 ft | 487 kts | 157° |
| 2026-04-26 11:44 | 50.73331 | 11.60063 | 35309 ft | 487 kts | 157° |
| 2026-04-26 11:44 | 50.67287 | 11.64481 | 35295 ft | 487 kts | 157° |
| 2026-04-26 11:45 | 50.61261 | 11.68872 | 35283 ft | 488 kts | 158° |
| 2026-04-26 11:45 | 50.55128 | 11.73330 | 35277 ft | 488 kts | 158° |
| 2026-04-26 11:46 | 50.49084 | 11.77710 | 35274 ft | 488 kts | 158° |
| 2026-04-26 11:46 | 50.43055 | 11.82066 | 35271 ft | 488 kts | 158° |
| 2026-04-26 11:47 | 50.37752 | 11.85888 | 35270 ft | 488 kts | 158° |
| 2026-04-26 11:47 | 50.31999 | 11.90024 | 35270 ft | 487 kts | 158° |
| 2026-04-26 11:48 | 50.25382 | 11.94767 | 35298 ft | 489 kts | 158° |
| 2026-04-26 11:48 | 50.22340 | 11.96992 | 36065 ft | 471 kts | 157° |
| 2026-04-26 11:48 | 50.19495 | 11.99071 | 36205 ft | 475 kts | 158° |
| 2026-04-26 11:49 | 50.16489 | 12.01194 | 35939 ft | 485 kts | 158° |
| 2026-04-26 11:49 | 50.13565 | 12.03256 | 35668 ft | 489 kts | 158° |
| 2026-04-26 11:49 | 50.10483 | 12.05434 | 35385 ft | 489 kts | 158° |
| 2026-04-26 11:49 | 50.07497 | 12.07544 | 35230 ft | 486 kts | 158° |
| 2026-04-26 11:50 | 50.01505 | 12.11777 | 35229 ft | 489 kts | 158° |
| 2026-04-26 11:50 | 49.95324 | 12.16140 | 35231 ft | 487 kts | 158° |
| 2026-04-26 11:51 | 49.89415 | 12.20300 | 35233 ft | 489 kts | 158° |
| 2026-04-26 11:51 | 49.83131 | 12.24715 | 35237 ft | 488 kts | 158° |
| 2026-04-26 11:52 | 49.77968 | 12.28334 | 35238 ft | 489 kts | 158° |
| 2026-04-26 11:52 | 49.71003 | 12.33826 | 35160 ft | 494 kts | 147° |
| 2026-04-26 11:53 | 49.68314 | 12.36965 | 35270 ft | 493 kts | 143° |
| 2026-04-26 11:53 | 49.65668 | 12.40188 | 35224 ft | 494 kts | 143° |
| 2026-04-26 11:54 | 49.57632 | 12.49939 | 35233 ft | 495 kts | 143° |
| 2026-04-26 11:54 | 49.52381 | 12.56264 | 35242 ft | 494 kts | 143° |
| 2026-04-26 11:55 | 49.47057 | 12.62650 | 35324 ft | 496 kts | 143° |
| 2026-04-26 11:55 | 49.41970 | 12.68731 | 35240 ft | 495 kts | 144° |
| 2026-04-26 11:56 | 49.36472 | 12.75282 | 35244 ft | 497 kts | 144° |
| 2026-04-26 11:56 | 49.31100 | 12.81664 | 35246 ft | 496 kts | 144° |
| 2026-04-26 11:57 | 49.25769 | 12.87977 | 35250 ft | 497 kts | 144° |
| 2026-04-26 11:57 | 49.20659 | 12.94013 | 35238 ft | 494 kts | 144° |
| 2026-04-26 11:58 | 49.15724 | 12.99825 | 35232 ft | 496 kts | 144° |
| 2026-04-26 11:58 | 49.10328 | 13.06163 | 35236 ft | 496 kts | 144° |
| 2026-04-26 11:59 | 49.04873 | 13.12553 | 35232 ft | 497 kts | 144° |
| 2026-04-26 11:59 | 48.99433 | 13.18907 | 35236 ft | 498 kts | 144° |
| 2026-04-26 12:00 | 48.94461 | 13.24698 | 35224 ft | 498 kts | 144° |
| 2026-04-26 12:00 | 48.88457 | 13.31672 | 35229 ft | 498 kts | 144° |
| 2026-04-26 12:01 | 48.82871 | 13.38142 | 35235 ft | 496 kts | 144° |
| 2026-04-26 12:01 | 48.77363 | 13.44502 | 35228 ft | 496 kts | 144° |
| 2026-04-26 12:02 | 48.71910 | 13.50781 | 35224 ft | 496 kts | 144° |
| 2026-04-26 12:02 | 48.66433 | 13.57010 | 35208 ft | 495 kts | 147° |
| 2026-04-26 12:03 | 48.60438 | 13.61905 | 35213 ft | 494 kts | 155° |
| 2026-04-26 12:03 | 48.54456 | 13.66309 | 35218 ft | 493 kts | 156° |
| 2026-04-26 12:04 | 48.48575 | 13.70617 | 35226 ft | 493 kts | 156° |
| 2026-04-26 12:04 | 48.43008 | 13.74684 | 35228 ft | 493 kts | 156° |
| 2026-04-26 12:05 | 48.36833 | 13.79182 | 35225 ft | 492 kts | 156° |
| 2026-04-26 12:05 | 48.30676 | 13.83653 | 35223 ft | 493 kts | 156° |
| 2026-04-26 12:06 | 48.24574 | 13.88072 | 35219 ft | 492 kts | 156° |
| 2026-04-26 12:06 | 48.18547 | 13.92733 | 35226 ft | 494 kts | 152° |
| 2026-04-26 12:07 | 48.12668 | 13.97876 | 35221 ft | 494 kts | 152° |
| 2026-04-26 12:07 | 48.06750 | 14.03005 | 35219 ft | 496 kts | 152° |
| 2026-04-26 12:08 | 48.00817 | 14.08106 | 35218 ft | 495 kts | 152° |
| 2026-04-26 12:08 | 47.94894 | 14.13172 | 35211 ft | 494 kts | 152° |
| 2026-04-26 12:09 | 47.89021 | 14.18175 | 35209 ft | 494 kts | 152° |
| 2026-04-26 12:09 | 47.83096 | 14.23204 | 35208 ft | 493 kts | 152° |
| 2026-04-26 12:10 | 47.77183 | 14.28207 | 35204 ft | 492 kts | 152° |
| 2026-04-26 12:10 | 47.71246 | 14.33216 | 35210 ft | 495 kts | 152° |
| 2026-04-26 12:11 | 47.65379 | 14.38152 | 35212 ft | 494 kts | 152° |
| 2026-04-26 12:11 | 47.59491 | 14.43094 | 35210 ft | 494 kts | 152° |
| 2026-04-26 12:12 | 47.53598 | 14.48026 | 35212 ft | 493 kts | 152° |
| 2026-04-26 12:12 | 47.47723 | 14.52930 | 35207 ft | 493 kts | 152° |
| 2026-04-26 12:13 | 47.41758 | 14.57897 | 35211 ft | 492 kts | 152° |
| 2026-04-26 12:13 | 47.35804 | 14.62841 | 35214 ft | 491 kts | 152° |
| 2026-04-26 12:14 | 47.30362 | 14.67348 | 35210 ft | 490 kts | 152° |
| 2026-04-26 12:14 | 47.24080 | 14.72538 | 35215 ft | 491 kts | 152° |
| 2026-04-26 12:15 | 47.18196 | 14.77386 | 35201 ft | 490 kts | 152° |
| 2026-04-26 12:15 | 47.12307 | 14.82227 | 35201 ft | 491 kts | 153° |
| 2026-04-26 12:16 | 47.06499 | 14.86988 | 35191 ft | 489 kts | 153° |
| 2026-04-26 12:16 | 47.00643 | 14.91776 | 35184 ft | 490 kts | 153° |
| 2026-04-26 12:17 | 46.95161 | 14.96248 | 35182 ft | 489 kts | 153° |
| 2026-04-26 12:17 | 46.89657 | 15.00727 | 35192 ft | 491 kts | 152° |
| 2026-04-26 12:18 | 46.85386 | 15.04196 | 35182 ft | 490 kts | 152° |
| 2026-04-26 12:18 | 46.77785 | 15.10352 | 35182 ft | 491 kts | 152° |
| 2026-04-26 12:19 | 46.71389 | 15.15517 | 35171 ft | 492 kts | 152° |
| 2026-04-26 12:19 | 46.65557 | 15.20215 | 35171 ft | 492 kts | 152° |
| 2026-04-26 12:20 | 46.59866 | 15.25086 | 35172 ft | 494 kts | 149° |
| 2026-04-26 12:20 | 46.54175 | 15.30165 | 35179 ft | 493 kts | 149° |
| 2026-04-26 12:21 | 46.48490 | 15.35206 | 35179 ft | 494 kts | 149° |
| 2026-04-26 12:21 | 46.42817 | 15.40213 | 35182 ft | 494 kts | 149° |
| 2026-04-26 12:22 | 46.37090 | 15.45249 | 35170 ft | 495 kts | 149° |
| 2026-04-26 12:22 | 46.31275 | 15.50346 | 35157 ft | 495 kts | 149° |
| 2026-04-26 12:23 | 46.25584 | 15.55319 | 35150 ft | 495 kts | 149° |
| 2026-04-26 12:23 | 46.19801 | 15.60359 | 35151 ft | 494 kts | 149° |
| 2026-04-26 12:24 | 46.14128 | 15.65317 | 35151 ft | 494 kts | 150° |
| 2026-04-26 12:24 | 46.08313 | 15.70442 | 35148 ft | 494 kts | 149° |
| 2026-04-26 12:25 | 45.99722 | 15.77988 | 35150 ft | 495 kts | 149° |
| 2026-04-26 12:25 | 45.93892 | 15.83091 | 35149 ft | 495 kts | 149° |
| 2026-04-26 12:26 | 45.88098 | 15.88148 | 35148 ft | 495 kts | 149° |
| 2026-04-26 12:26 | 45.82355 | 15.93148 | 35144 ft | 494 kts | 149° |
| 2026-04-26 12:27 | 45.76570 | 15.98174 | 35143 ft | 494 kts | 149° |
| 2026-04-26 12:27 | 45.70813 | 16.03161 | 35141 ft | 495 kts | 149° |
| 2026-04-26 12:28 | 45.65025 | 16.08163 | 35145 ft | 496 kts | 149° |
| 2026-04-26 12:28 | 45.59157 | 16.13223 | 35142 ft | 495 kts | 149° |
| 2026-04-26 12:29 | 45.53357 | 16.18210 | 35148 ft | 496 kts | 149° |
| 2026-04-26 12:30 | 45.44635 | 16.25689 | 35141 ft | 495 kts | 149° |
| 2026-04-26 12:30 | 45.38795 | 16.30680 | 35141 ft | 495 kts | 149° |
| 2026-04-26 12:31 | 45.29954 | 16.38215 | 35141 ft | 497 kts | 149° |
| 2026-04-26 12:31 | 45.24049 | 16.43232 | 35142 ft | 497 kts | 149° |
| 2026-04-26 12:32 | 45.18359 | 16.48054 | 35137 ft | 497 kts | 149° |
| 2026-04-26 12:33 | 45.09679 | 16.55388 | 35132 ft | 497 kts | 149° |
| 2026-04-26 12:33 | 45.03768 | 16.60368 | 35136 ft | 497 kts | 149° |
| 2026-04-26 12:34 | 44.97806 | 16.65379 | 35145 ft | 497 kts | 150° |
| 2026-04-26 12:34 | 44.91874 | 16.70352 | 35144 ft | 498 kts | 150° |
| 2026-04-26 12:35 | 44.86009 | 16.75258 | 35141 ft | 498 kts | 150° |
| 2026-04-26 12:35 | 44.80096 | 16.80191 | 35148 ft | 497 kts | 150° |
| 2026-04-26 12:36 | 44.74224 | 16.85078 | 35149 ft | 497 kts | 150° |
| 2026-04-26 12:36 | 44.68475 | 16.89853 | 35155 ft | 497 kts | 150° |
| 2026-04-26 12:37 | 44.62580 | 16.94736 | 35162 ft | 497 kts | 150° |
| 2026-04-26 12:37 | 44.56675 | 16.99616 | 35171 ft | 498 kts | 150° |
| 2026-04-26 12:38 | 44.50717 | 17.04528 | 35176 ft | 497 kts | 150° |
| 2026-04-26 12:38 | 44.44802 | 17.09393 | 35182 ft | 496 kts | 150° |
| 2026-04-26 12:39 | 44.38893 | 17.14242 | 35183 ft | 496 kts | 150° |
| 2026-04-26 12:39 | 44.32958 | 17.19101 | 35185 ft | 496 kts | 150° |
| 2026-04-26 12:40 | 44.27201 | 17.23802 | 35187 ft | 496 kts | 150° |
| 2026-04-26 12:40 | 44.21326 | 17.28589 | 35186 ft | 496 kts | 150° |
| 2026-04-26 12:41 | 44.15391 | 17.33414 | 35185 ft | 497 kts | 150° |
| 2026-04-26 12:41 | 44.09472 | 17.38214 | 35180 ft | 497 kts | 150° |
| 2026-04-26 12:42 | 44.03549 | 17.43006 | 35174 ft | 496 kts | 150° |
| 2026-04-26 12:42 | 43.97573 | 17.47830 | 35169 ft | 496 kts | 150° |
| 2026-04-26 12:43 | 43.91655 | 17.52596 | 35166 ft | 496 kts | 150° |
| 2026-04-26 12:43 | 43.85764 | 17.57329 | 35168 ft | 497 kts | 150° |
| 2026-04-26 12:44 | 43.80224 | 17.61770 | 35169 ft | 498 kts | 150° |
| 2026-04-26 12:44 | 43.73920 | 17.66812 | 35155 ft | 498 kts | 151° |
| 2026-04-26 12:45 | 43.67964 | 17.71564 | 35146 ft | 497 kts | 151° |
| 2026-04-26 12:45 | 43.61989 | 17.76321 | 35138 ft | 497 kts | 151° |
| 2026-04-26 12:46 | 43.56056 | 17.81033 | 35134 ft | 496 kts | 151° |
| 2026-04-26 12:46 | 43.50111 | 17.85743 | 35145 ft | 497 kts | 151° |
| 2026-04-26 12:47 | 43.44385 | 17.90270 | 35148 ft | 498 kts | 151° |
| 2026-04-26 12:47 | 43.38441 | 17.94959 | 35152 ft | 498 kts | 151° |
| 2026-04-26 12:48 | 43.32488 | 17.99645 | 35148 ft | 497 kts | 151° |
| 2026-04-26 12:48 | 43.26802 | 18.04110 | 35138 ft | 498 kts | 151° |
| 2026-04-26 12:49 | 43.20771 | 18.08835 | 35129 ft | 497 kts | 151° |
| 2026-04-26 12:49 | 43.14833 | 18.13477 | 35128 ft | 497 kts | 151° |
| 2026-04-26 12:50 | 43.08903 | 18.18103 | 35131 ft | 496 kts | 151° |
| 2026-04-26 12:50 | 43.02931 | 18.22750 | 35139 ft | 496 kts | 151° |
| 2026-04-26 12:51 | 42.96906 | 18.27427 | 35138 ft | 497 kts | 151° |
| 2026-04-26 12:51 | 42.90922 | 18.32063 | 35130 ft | 497 kts | 151° |
| 2026-04-26 12:52 | 42.84943 | 18.36685 | 35133 ft | 499 kts | 151° |
| 2026-04-26 12:52 | 42.78922 | 18.41328 | 35127 ft | 498 kts | 151° |
| 2026-04-26 12:53 | 42.72884 | 18.45975 | 35116 ft | 499 kts | 152° |
| 2026-04-26 12:53 | 42.66872 | 18.50590 | 35112 ft | 498 kts | 152° |
| 2026-04-26 12:54 | 42.60850 | 18.55203 | 35096 ft | 498 kts | 152° |
| 2026-04-26 12:54 | 42.54812 | 18.59819 | 35100 ft | 498 kts | 152° |
| 2026-04-26 12:55 | 42.48815 | 18.64391 | 35099 ft | 498 kts | 152° |
| 2026-04-26 12:55 | 42.42847 | 18.68932 | 35091 ft | 498 kts | 152° |
| 2026-04-26 12:56 | 42.36807 | 18.73519 | 35084 ft | 498 kts | 152° |
| 2026-04-26 12:56 | 42.30767 | 18.78094 | 35083 ft | 499 kts | 153° |
| 2026-04-26 12:57 | 42.24989 | 18.83200 | 35083 ft | 501 kts | 144° |
| 2026-04-26 12:57 | 42.19513 | 18.88840 | 35080 ft | 502 kts | 144° |
| 2026-04-26 12:58 | 42.11213 | 18.97337 | 35079 ft | 502 kts | 144° |
| 2026-04-26 12:58 | 42.05658 | 19.02994 | 35074 ft | 501 kts | 144° |
| 2026-04-26 12:59 | 42.00090 | 19.08644 | 35079 ft | 500 kts | 144° |
| 2026-04-26 12:59 | 41.94523 | 19.14277 | 35084 ft | 501 kts | 144° |
| 2026-04-26 13:00 | 41.88985 | 19.19866 | 35074 ft | 501 kts | 144° |
| 2026-04-26 13:00 | 41.83417 | 19.25471 | 35070 ft | 501 kts | 144° |
| 2026-04-26 13:01 | 41.77826 | 19.31036 | 35067 ft | 501 kts | 148° |
| 2026-04-26 13:01 | 41.71852 | 19.35798 | 35071 ft | 499 kts | 152° |
| 2026-04-26 13:02 | 41.65891 | 19.40398 | 35074 ft | 499 kts | 152° |
| 2026-04-26 13:02 | 41.59874 | 19.45034 | 35073 ft | 498 kts | 152° |
| 2026-04-26 13:03 | 41.53878 | 19.49645 | 35072 ft | 499 kts | 152° |
| 2026-04-26 13:03 | 41.47832 | 19.54286 | 35074 ft | 499 kts | 152° |
| 2026-04-26 13:04 | 41.41855 | 19.58864 | 35082 ft | 499 kts | 152° |
| 2026-04-26 13:04 | 41.35838 | 19.63463 | 35079 ft | 499 kts | 152° |
| 2026-04-26 13:05 | 41.29917 | 19.67980 | 35088 ft | 498 kts | 153° |
| 2026-04-26 13:05 | 41.23965 | 19.72510 | 35091 ft | 498 kts | 152° |
| 2026-04-26 13:06 | 41.18013 | 19.77032 | 35090 ft | 497 kts | 153° |
| 2026-04-26 13:06 | 41.12004 | 19.81586 | 35091 ft | 499 kts | 152° |
| 2026-04-26 13:07 | 41.06038 | 19.86099 | 35094 ft | 498 kts | 153° |
| 2026-04-26 13:07 | 41.00181 | 19.90520 | 35086 ft | 498 kts | 153° |
| 2026-04-26 13:08 | 40.94197 | 19.95028 | 35085 ft | 498 kts | 152° |
| 2026-04-26 13:08 | 40.88232 | 19.99511 | 35088 ft | 497 kts | 152° |
| 2026-04-26 13:09 | 40.82183 | 20.04048 | 35096 ft | 498 kts | 153° |
| 2026-04-26 13:09 | 40.76135 | 20.08575 | 35098 ft | 498 kts | 153° |
| 2026-04-26 13:10 | 40.70187 | 20.13018 | 35101 ft | 498 kts | 153° |
| 2026-04-26 13:10 | 40.64243 | 20.17448 | 35101 ft | 497 kts | 153° |
| 2026-04-26 13:11 | 40.58214 | 20.21932 | 35107 ft | 498 kts | 152° |
| 2026-04-26 13:11 | 40.52168 | 20.26421 | 35111 ft | 498 kts | 152° |
| 2026-04-26 13:12 | 40.46193 | 20.30846 | 35120 ft | 497 kts | 152° |
| 2026-04-26 13:12 | 40.40107 | 20.35345 | 35126 ft | 498 kts | 152° |
| 2026-04-26 13:13 | 40.34086 | 20.39786 | 35132 ft | 498 kts | 152° |
| 2026-04-26 13:13 | 40.28091 | 20.44199 | 35130 ft | 497 kts | 152° |
| 2026-04-26 13:14 | 40.22098 | 20.48601 | 35126 ft | 497 kts | 152° |
| 2026-04-26 13:14 | 40.16088 | 20.53008 | 35125 ft | 497 kts | 152° |
| 2026-04-26 13:15 | 40.10054 | 20.57422 | 35131 ft | 498 kts | 152° |
| 2026-04-26 13:15 | 40.05078 | 20.61024 | 35140 ft | 497 kts | 153° |
| 2026-04-26 13:16 | 39.97980 | 20.65943 | 35144 ft | 497 kts | 154° |
| 2026-04-26 13:16 | 39.91872 | 20.70168 | 35142 ft | 496 kts | 154° |
| 2026-04-26 13:17 | 39.82810 | 20.76430 | 35126 ft | 496 kts | 154° |
| 2026-04-26 13:18 | 39.73661 | 20.82738 | 35093 ft | 496 kts | 154° |
| 2026-04-26 13:19 | 39.64599 | 20.88969 | 35101 ft | 497 kts | 154° |
| 2026-04-26 13:19 | 39.58489 | 20.93160 | 35101 ft | 496 kts | 154° |
| 2026-04-26 13:20 | 39.52381 | 20.97342 | 35087 ft | 496 kts | 154° |
| 2026-04-26 13:20 | 39.46297 | 21.01499 | 35072 ft | 494 kts | 154° |
| 2026-04-26 13:21 | 39.40221 | 21.05643 | 35084 ft | 494 kts | 153° |
| 2026-04-26 13:21 | 39.34094 | 21.09812 | 35094 ft | 495 kts | 153° |
| 2026-04-26 13:22 | 39.27979 | 21.13966 | 35094 ft | 496 kts | 153° |
| 2026-04-26 13:22 | 39.21894 | 21.18091 | 35099 ft | 496 kts | 153° |
| 2026-04-26 13:23 | 39.15791 | 21.22219 | 35100 ft | 495 kts | 153° |
| 2026-04-26 13:23 | 39.09659 | 21.26360 | 35096 ft | 494 kts | 153° |
| 2026-04-26 13:24 | 39.03645 | 21.30412 | 35083 ft | 494 kts | 153° |
| 2026-04-26 13:24 | 38.97554 | 21.34509 | 35074 ft | 494 kts | 153° |
| 2026-04-26 13:25 | 38.91461 | 21.38599 | 35074 ft | 495 kts | 153° |
| 2026-04-26 13:25 | 38.85299 | 21.42727 | 35072 ft | 495 kts | 153° |
| 2026-04-26 13:26 | 38.79181 | 21.46818 | 35072 ft | 495 kts | 153° |
| 2026-04-26 13:26 | 38.73071 | 21.50896 | 35073 ft | 496 kts | 153° |
| 2026-04-26 13:27 | 38.66945 | 21.54976 | 35078 ft | 496 kts | 153° |
| 2026-04-26 13:27 | 38.60823 | 21.59045 | 35081 ft | 496 kts | 153° |
| 2026-04-26 13:28 | 38.54691 | 21.63113 | 35082 ft | 496 kts | 153° |
| 2026-04-26 13:28 | 38.48574 | 21.67164 | 35076 ft | 496 kts | 153° |
| 2026-04-26 13:29 | 38.42460 | 21.71204 | 35075 ft | 496 kts | 153° |
| 2026-04-26 13:29 | 38.36313 | 21.75259 | 35071 ft | 497 kts | 153° |
| 2026-04-26 13:30 | 38.30118 | 21.79338 | 35063 ft | 497 kts | 153° |
| 2026-04-26 13:30 | 38.23986 | 21.83367 | 35059 ft | 497 kts | 153° |
| 2026-04-26 13:31 | 38.17822 | 21.87409 | 35075 ft | 497 kts | 153° |
| 2026-04-26 13:31 | 38.11677 | 21.91432 | 35094 ft | 496 kts | 153° |
| 2026-04-26 13:32 | 38.05656 | 21.95365 | 35116 ft | 496 kts | 153° |
| 2026-04-26 13:32 | 37.99745 | 21.99220 | 35131 ft | 496 kts | 153° |
| 2026-04-26 13:33 | 37.93596 | 22.03223 | 35131 ft | 497 kts | 153° |
| 2026-04-26 13:33 | 37.87415 | 22.07239 | 35121 ft | 498 kts | 153° |
| 2026-04-26 13:34 | 37.81213 | 22.11260 | 35115 ft | 499 kts | 153° |
| 2026-04-26 13:34 | 37.75035 | 22.15259 | 35111 ft | 498 kts | 152° |
| 2026-04-26 13:35 | 37.68831 | 22.19267 | 35103 ft | 499 kts | 152° |
| 2026-04-26 13:35 | 37.62637 | 22.23261 | 35100 ft | 499 kts | 152° |
| 2026-04-26 13:36 | 37.56404 | 22.27272 | 35096 ft | 500 kts | 152° |
| 2026-04-26 13:36 | 37.50197 | 22.31259 | 35089 ft | 500 kts | 152° |
| 2026-04-26 13:37 | 37.44049 | 22.35200 | 35086 ft | 500 kts | 152° |
| 2026-04-26 13:37 | 37.37913 | 22.39128 | 35087 ft | 502 kts | 152° |
| 2026-04-26 13:38 | 37.31682 | 22.43108 | 35085 ft | 501 kts | 152° |
| 2026-04-26 13:38 | 37.25416 | 22.47103 | 35082 ft | 502 kts | 152° |
| 2026-04-26 13:39 | 37.19138 | 22.51098 | 35076 ft | 501 kts | 152° |
| 2026-04-26 13:39 | 37.12947 | 22.55031 | 35069 ft | 504 kts | 152° |
| 2026-04-26 13:40 | 37.06628 | 22.59037 | 35058 ft | 503 kts | 152° |
| 2026-04-26 13:40 | 37.00368 | 22.62998 | 35043 ft | 503 kts | 152° |
| 2026-04-26 13:41 | 36.94139 | 22.66933 | 35046 ft | 504 kts | 152° |
| 2026-04-26 13:41 | 36.87862 | 22.70891 | 35034 ft | 504 kts | 152° |
| 2026-04-26 13:42 | 36.81567 | 22.74853 | 35028 ft | 505 kts | 152° |
| 2026-04-26 13:42 | 36.75270 | 22.78807 | 35023 ft | 506 kts | 152° |
| 2026-04-26 13:43 | 36.68980 | 22.82751 | 35019 ft | 505 kts | 152° |
| 2026-04-26 13:43 | 36.62660 | 22.86707 | 35028 ft | 506 kts | 152° |
| 2026-04-26 13:44 | 36.56370 | 22.90636 | 35032 ft | 505 kts | 152° |
| 2026-04-26 13:44 | 36.50082 | 22.94557 | 35029 ft | 506 kts | 152° |
| 2026-04-26 13:45 | 36.43772 | 22.98484 | 35030 ft | 506 kts | 152° |
| 2026-04-26 13:45 | 36.37432 | 23.02423 | 35025 ft | 508 kts | 152° |
| 2026-04-26 13:46 | 36.31070 | 23.06368 | 35037 ft | 506 kts | 152° |
| 2026-04-26 13:46 | 36.24751 | 23.10280 | 35032 ft | 508 kts | 151° |
| 2026-04-26 13:47 | 36.18395 | 23.14207 | 35027 ft | 508 kts | 151° |
| 2026-04-26 13:47 | 36.12078 | 23.18103 | 35034 ft | 508 kts | 151° |
| 2026-04-26 13:48 | 36.05736 | 23.22007 | 35028 ft | 509 kts | 151° |
| 2026-04-26 13:48 | 35.99337 | 23.25940 | 35035 ft | 510 kts | 152° |
| 2026-04-26 13:49 | 35.92951 | 23.29856 | 34924 ft | 509 kts | 151° |
| 2026-04-26 13:49 | 35.89800 | 23.31786 | 35026 ft | 512 kts | 151° |
| 2026-04-26 13:49 | 35.86606 | 23.33742 | 35033 ft | 513 kts | 151° |
| 2026-04-26 13:50 | 35.80175 | 23.37671 | 35029 ft | 510 kts | 151° |
| 2026-04-26 13:50 | 35.73759 | 23.41586 | 35030 ft | 514 kts | 151° |
| 2026-04-26 13:51 | 35.67350 | 23.45489 | 35026 ft | 512 kts | 152° |
| 2026-04-26 13:51 | 35.60945 | 23.49382 | 35025 ft | 513 kts | 151° |
| 2026-04-26 13:52 | 35.54541 | 23.53268 | 35025 ft | 515 kts | 151° |
| 2026-04-26 13:52 | 35.48130 | 23.57151 | 35024 ft | 512 kts | 151° |
| 2026-04-26 13:53 | 35.41675 | 23.61053 | 35022 ft | 516 kts | 151° |
| 2026-04-26 13:53 | 35.35248 | 23.64932 | 35028 ft | 513 kts | 152° |
| 2026-04-26 13:54 | 35.28808 | 23.68812 | 35027 ft | 516 kts | 152° |
| 2026-04-26 13:54 | 35.22312 | 23.72719 | 35031 ft | 516 kts | 152° |
| 2026-04-26 13:55 | 35.13683 | 23.77897 | 35027 ft | 517 kts | 152° |
| 2026-04-26 13:56 | 35.02849 | 23.84381 | 35008 ft | 517 kts | 152° |
| 2026-04-26 13:56 | 34.96386 | 23.88240 | 34998 ft | 518 kts | 152° |
| 2026-04-26 13:57 | 34.89870 | 23.92123 | 35008 ft | 516 kts | 152° |
| 2026-04-26 13:57 | 34.83411 | 23.95967 | 34993 ft | 519 kts | 152° |
| 2026-04-26 13:58 | 34.76867 | 23.99853 | 34996 ft | 518 kts | 152° |
| 2026-04-26 13:58 | 34.70362 | 24.03710 | 34995 ft | 520 kts | 153° |
| 2026-04-26 13:59 | 34.63858 | 24.07559 | 34997 ft | 519 kts | 153° |
| 2026-04-26 13:59 | 34.57328 | 24.11417 | 34991 ft | 519 kts | 153° |
| 2026-04-26 14:00 | 34.44237 | 24.19131 | 35006 ft | 523 kts | 153° |
| 2026-04-26 14:01 | 34.37712 | 24.22966 | 34998 ft | 521 kts | 153° |
| 2026-04-26 14:01 | 34.31128 | 24.26828 | 35007 ft | 521 kts | 153° |
| 2026-04-26 14:02 | 34.24614 | 24.30643 | 34992 ft | 521 kts | 153° |
| 2026-04-26 14:02 | 34.18030 | 24.34492 | 34998 ft | 523 kts | 153° |
| 2026-04-26 14:03 | 34.11453 | 24.38331 | 35005 ft | 522 kts | 153° |
| 2026-04-26 14:03 | 34.04940 | 24.42125 | 35004 ft | 522 kts | 153° |
| 2026-04-26 14:04 | 33.98590 | 24.46465 | 35000 ft | 521 kts | 141° |
| 2026-04-26 14:04 | 33.93117 | 24.52234 | 35010 ft | 521 kts | 136° |
| 2026-04-26 14:05 | 33.87718 | 24.58120 | 35003 ft | 523 kts | 136° |
| 2026-04-26 14:05 | 33.82298 | 24.63983 | 35006 ft | 522 kts | 136° |
| 2026-04-26 14:06 | 33.76883 | 24.69810 | 34996 ft | 525 kts | 137° |
| 2026-04-26 14:06 | 33.71417 | 24.75670 | 34989 ft | 524 kts | 137° |
| 2026-04-26 14:07 | 33.65944 | 24.81522 | 34984 ft | 527 kts | 137° |
| 2026-04-26 14:07 | 33.60475 | 24.87355 | 34973 ft | 528 kts | 137° |
| 2026-04-26 14:08 | 33.54942 | 24.93244 | 34982 ft | 527 kts | 138° |
| 2026-04-26 14:08 | 33.49421 | 24.99109 | 34989 ft | 530 kts | 138° |
| 2026-04-26 14:09 | 33.43898 | 25.04964 | 34974 ft | 528 kts | 138° |
| 2026-04-26 14:09 | 33.38354 | 25.10832 | 34993 ft | 533 kts | 138° |
| 2026-04-26 14:10 | 33.32764 | 25.16737 | 34971 ft | 532 kts | 139° |
| 2026-04-26 14:10 | 33.27216 | 25.22588 | 34975 ft | 533 kts | 139° |
| 2026-04-26 14:11 | 33.18865 | 25.31375 | 34976 ft | 533 kts | 139° |
| 2026-04-26 14:11 | 33.13296 | 25.37222 | 34995 ft | 534 kts | 139° |
| 2026-04-26 14:12 | 33.07717 | 25.43068 | 34985 ft | 531 kts | 139° |
| 2026-04-26 14:12 | 33.02133 | 25.48910 | 34990 ft | 536 kts | 139° |
| 2026-04-26 14:13 | 32.93735 | 25.57677 | 35002 ft | 534 kts | 139° |
| 2026-04-26 14:14 | 32.88124 | 25.63522 | 34978 ft | 535 kts | 140° |
| 2026-04-26 14:14 | 32.82518 | 25.69351 | 34974 ft | 534 kts | 140° |
| 2026-04-26 14:15 | 32.76911 | 25.75171 | 34961 ft | 537 kts | 141° |
| 2026-04-26 14:15 | 32.71278 | 25.81008 | 34967 ft | 535 kts | 141° |
| 2026-04-26 14:16 | 32.65663 | 25.86816 | 34969 ft | 536 kts | 141° |
| 2026-04-26 14:16 | 32.60028 | 25.92634 | 34970 ft | 537 kts | 141° |
| 2026-04-26 14:17 | 32.54394 | 25.98442 | 34971 ft | 537 kts | 141° |
| 2026-04-26 14:17 | 32.48742 | 26.04257 | 34979 ft | 536 kts | 141° |
| 2026-04-26 14:18 | 32.43114 | 26.10038 | 34980 ft | 537 kts | 141° |
| 2026-04-26 14:18 | 32.37459 | 26.15838 | 34981 ft | 538 kts | 141° |
| 2026-04-26 14:19 | 32.31768 | 26.21664 | 34982 ft | 538 kts | 141° |
| 2026-04-26 14:19 | 32.26128 | 26.27427 | 34980 ft | 537 kts | 141° |
| 2026-04-26 14:20 | 32.20463 | 26.33207 | 34973 ft | 539 kts | 141° |
| 2026-04-26 14:20 | 32.14811 | 26.38963 | 34953 ft | 537 kts | 142° |
| 2026-04-26 14:21 | 32.09119 | 26.44750 | 34955 ft | 541 kts | 142° |
| 2026-04-26 14:21 | 32.03427 | 26.50528 | 34972 ft | 540 kts | 142° |
| 2026-04-26 14:22 | 31.97756 | 26.56274 | 34989 ft | 539 kts | 142° |
| 2026-04-26 14:22 | 31.92035 | 26.62062 | 34973 ft | 538 kts | 142° |
| 2026-04-26 14:23 | 31.86343 | 26.67809 | 34897 ft | 537 kts | 143° |
| 2026-04-26 14:23 | 31.80657 | 26.73541 | 34945 ft | 541 kts | 143° |
| 2026-04-26 14:24 | 31.74911 | 26.79323 | 35092 ft | 541 kts | 143° |
| 2026-04-26 14:24 | 31.72078 | 26.82172 | 34970 ft | 536 kts | 143° |
| 2026-04-26 14:24 | 31.69217 | 26.85046 | 34964 ft | 535 kts | 143° |
| 2026-04-26 14:25 | 31.63502 | 26.90777 | 34972 ft | 539 kts | 143° |
| 2026-04-26 14:25 | 31.57820 | 26.96468 | 34973 ft | 537 kts | 143° |
| 2026-04-26 14:26 | 31.52145 | 27.02141 | 34973 ft | 537 kts | 143° |
| 2026-04-26 14:26 | 31.46433 | 27.07841 | 34969 ft | 537 kts | 144° |
| 2026-04-26 14:27 | 31.40726 | 27.13527 | 34975 ft | 539 kts | 144° |
| 2026-04-26 14:27 | 31.34994 | 27.19230 | 34974 ft | 537 kts | 144° |
| 2026-04-26 14:28 | 31.29877 | 27.25688 | 34980 ft | 547 kts | 128° |
| 2026-04-26 14:28 | 31.25599 | 27.33092 | 34986 ft | 550 kts | 127° |
| 2026-04-26 14:29 | 31.21319 | 27.40544 | 34984 ft | 549 kts | 127° |
| 2026-04-26 14:29 | 31.17053 | 27.47927 | 34976 ft | 550 kts | 127° |
| 2026-04-26 14:30 | 31.12743 | 27.55353 | 34973 ft | 549 kts | 127° |
| 2026-04-26 14:30 | 31.08394 | 27.62670 | 34978 ft | 549 kts | 128° |
| 2026-04-26 14:31 | 31.04014 | 27.70002 | 34959 ft | 550 kts | 129° |
| 2026-04-26 14:31 | 30.99626 | 27.77338 | 34960 ft | 548 kts | 129° |
| 2026-04-26 14:32 | 30.95227 | 27.84677 | 34959 ft | 550 kts | 129° |
| 2026-04-26 14:32 | 30.90810 | 27.92035 | 34958 ft | 550 kts | 129° |
| 2026-04-26 14:33 | 30.86418 | 27.99336 | 34956 ft | 550 kts | 129° |
| 2026-04-26 14:33 | 30.81975 | 28.06708 | 34958 ft | 552 kts | 129° |
| 2026-04-26 14:34 | 30.77557 | 28.14029 | 34960 ft | 551 kts | 129° |
| 2026-04-26 14:34 | 30.73137 | 28.21335 | 34961 ft | 552 kts | 129° |
| 2026-04-26 14:35 | 30.68721 | 28.28625 | 34963 ft | 552 kts | 129° |
| 2026-04-26 14:35 | 30.64250 | 28.35989 | 34964 ft | 553 kts | 129° |
| 2026-04-26 14:36 | 30.59816 | 28.43281 | 34966 ft | 554 kts | 130° |
| 2026-04-26 14:36 | 30.55322 | 28.50657 | 34966 ft | 554 kts | 130° |
| 2026-04-26 14:37 | 30.50884 | 28.57928 | 34967 ft | 553 kts | 130° |
| 2026-04-26 14:37 | 30.46432 | 28.65207 | 34966 ft | 555 kts | 130° |
| 2026-04-26 14:38 | 30.41964 | 28.72502 | 34943 ft | 554 kts | 131° |
| 2026-04-26 14:38 | 30.37463 | 28.79836 | 34942 ft | 554 kts | 130° |
| 2026-04-26 14:39 | 30.32992 | 28.87108 | 34939 ft | 555 kts | 131° |
| 2026-04-26 14:39 | 30.28495 | 28.94409 | 34940 ft | 555 kts | 131° |
| 2026-04-26 14:40 | 30.23996 | 29.01699 | 34936 ft | 556 kts | 131° |
| 2026-04-26 14:40 | 30.19483 | 29.09000 | 34938 ft | 555 kts | 131° |
| 2026-04-26 14:41 | 30.14986 | 29.16284 | 34943 ft | 557 kts | 131° |
| 2026-04-26 14:41 | 30.10478 | 29.23632 | 34946 ft | 559 kts | 130° |
| 2026-04-26 14:42 | 30.06039 | 29.31002 | 34950 ft | 557 kts | 130° |
| 2026-04-26 14:42 | 30.01598 | 29.38357 | 34951 ft | 560 kts | 130° |
| 2026-04-26 14:43 | 29.97145 | 29.45715 | 34952 ft | 558 kts | 130° |
| 2026-04-26 14:43 | 29.92672 | 29.53091 | 34956 ft | 557 kts | 131° |
| 2026-04-26 14:44 | 29.88209 | 29.60433 | 34959 ft | 560 kts | 131° |
| 2026-04-26 14:44 | 29.83711 | 29.67821 | 34946 ft | 557 kts | 131° |
| 2026-04-26 14:45 | 29.79233 | 29.75159 | 34941 ft | 559 kts | 131° |
| 2026-04-26 14:45 | 29.74736 | 29.82516 | 34952 ft | 559 kts | 132° |
| 2026-04-26 14:46 | 29.70288 | 29.89780 | 34957 ft | 557 kts | 131° |
| 2026-04-26 14:46 | 29.65780 | 29.97128 | 34960 ft | 557 kts | 132° |
| 2026-04-26 14:47 | 29.61285 | 30.04444 | 34969 ft | 557 kts | 132° |
| 2026-04-26 14:47 | 29.56765 | 30.11784 | 34970 ft | 559 kts | 132° |
| 2026-04-26 14:48 | 29.52245 | 30.19112 | 34967 ft | 558 kts | 132° |
| 2026-04-26 14:48 | 29.47704 | 30.26461 | 34968 ft | 559 kts | 132° |
| 2026-04-26 14:49 | 29.43181 | 30.33769 | 34962 ft | 559 kts | 132° |
| 2026-04-26 14:49 | 29.38453 | 30.40805 | 34959 ft | 550 kts | 141° |
| 2026-04-26 14:50 | 29.33194 | 30.47138 | 34954 ft | 549 kts | 142° |
| 2026-04-26 14:50 | 29.27858 | 30.53502 | 34951 ft | 549 kts | 142° |
| 2026-04-26 14:51 | 29.22567 | 30.59802 | 34951 ft | 551 kts | 142° |
| 2026-04-26 14:51 | 29.17203 | 30.66180 | 34944 ft | 549 kts | 142° |
| 2026-04-26 14:52 | 29.11930 | 30.72440 | 34937 ft | 549 kts | 142° |
| 2026-04-26 14:52 | 29.06583 | 30.78775 | 34937 ft | 550 kts | 142° |
| 2026-04-26 14:53 | 29.01269 | 30.85064 | 34940 ft | 550 kts | 142° |
| 2026-04-26 14:53 | 28.95957 | 30.91340 | 34934 ft | 549 kts | 142° |
| 2026-04-26 14:54 | 28.90637 | 30.97618 | 34935 ft | 545 kts | 143° |
| 2026-04-26 14:54 | 28.85338 | 31.03855 | 34944 ft | 550 kts | 143° |
| 2026-04-26 14:55 | 28.80034 | 31.10094 | 34955 ft | 546 kts | 143° |
| 2026-04-26 14:55 | 28.74677 | 31.16379 | 34956 ft | 551 kts | 143° |
| 2026-04-26 14:56 | 28.69383 | 31.22589 | 34968 ft | 549 kts | 142° |
| 2026-04-26 14:56 | 28.64194 | 31.29097 | 34966 ft | 551 kts | 140° |
| 2026-04-26 14:57 | 28.59053 | 31.35608 | 34976 ft | 551 kts | 140° |
| 2026-04-26 14:57 | 28.53912 | 31.42094 | 34983 ft | 549 kts | 141° |
| 2026-04-26 14:58 | 28.48750 | 31.48584 | 34994 ft | 550 kts | 141° |
| 2026-04-26 14:58 | 28.43623 | 31.55017 | 34995 ft | 550 kts | 141° |
| 2026-04-26 14:59 | 28.38485 | 31.61450 | 34996 ft | 546 kts | 141° |
| 2026-04-26 14:59 | 28.33320 | 31.67901 | 34978 ft | 550 kts | 141° |
| 2026-04-26 15:00 | 28.28203 | 31.74286 | 34984 ft | 548 kts | 141° |
| 2026-04-26 15:00 | 28.23048 | 31.80706 | 34993 ft | 548 kts | 141° |
| 2026-04-26 15:01 | 28.17861 | 31.87152 | 34994 ft | 550 kts | 141° |
| 2026-04-26 15:01 | 28.12716 | 31.93542 | 35000 ft | 549 kts | 142° |
| 2026-04-26 15:02 | 28.07546 | 31.99953 | 35002 ft | 546 kts | 141° |
| 2026-04-26 15:02 | 28.02672 | 32.06690 | 35007 ft | 562 kts | 130° |
| 2026-04-26 15:03 | 27.98823 | 32.14439 | 35019 ft | 565 kts | 126° |
| 2026-04-26 15:03 | 27.95061 | 32.22285 | 35027 ft | 569 kts | 126° |
| 2026-04-26 15:04 | 27.91253 | 32.30203 | 35047 ft | 569 kts | 126° |
| 2026-04-26 15:04 | 27.87475 | 32.38027 | 35032 ft | 573 kts | 126° |
| 2026-04-26 15:05 | 27.83646 | 32.45943 | 35026 ft | 568 kts | 126° |
| 2026-04-26 15:05 | 27.79802 | 32.53860 | 35023 ft | 577 kts | 126° |
| 2026-04-26 15:06 | 27.75950 | 32.61787 | 35016 ft | 572 kts | 126° |
| 2026-04-26 15:06 | 27.72111 | 32.69671 | 34991 ft | 570 kts | 126° |
| 2026-04-26 15:07 | 27.66343 | 32.81480 | 34977 ft | 573 kts | 126° |
| 2026-04-26 15:07 | 27.62481 | 32.89368 | 34976 ft | 575 kts | 126° |
| 2026-04-26 15:08 | 27.58586 | 32.97308 | 34988 ft | 577 kts | 127° |
| 2026-04-26 15:08 | 27.54677 | 33.05266 | 34994 ft | 575 kts | 127° |
| 2026-04-26 15:09 | 27.50816 | 33.13111 | 34972 ft | 573 kts | 126° |
| 2026-04-26 15:09 | 27.46905 | 33.21035 | 34956 ft | 578 kts | 126° |
| 2026-04-26 15:10 | 27.43647 | 33.27636 | 34934 ft | 573 kts | 126° |
| 2026-04-26 15:10 | 27.39091 | 33.36837 | 34935 ft | 577 kts | 126° |
| 2026-04-26 15:11 | 27.35179 | 33.44729 | 34928 ft | 571 kts | 126° |
| 2026-04-26 15:11 | 27.31311 | 33.52510 | 34906 ft | 572 kts | 127° |
| 2026-04-26 15:12 | 27.27398 | 33.60367 | 34901 ft | 575 kts | 126° |
| 2026-04-26 15:12 | 27.23494 | 33.68198 | 34864 ft | 571 kts | 127° |
| 2026-04-26 15:13 | 27.19583 | 33.76022 | 34862 ft | 573 kts | 127° |
| 2026-04-26 15:13 | 27.16128 | 33.84184 | 34865 ft | 585 kts | 117° |
| 2026-04-26 15:14 | 27.13122 | 33.92671 | 34860 ft | 581 kts | 118° |
| 2026-04-26 15:14 | 27.10128 | 34.01112 | 34845 ft | 582 kts | 117° |
| 2026-04-26 15:15 | 27.07132 | 34.09524 | 34859 ft | 583 kts | 117° |
| 2026-04-26 15:15 | 27.04113 | 34.17979 | 34851 ft | 582 kts | 117° |
| 2026-04-26 15:16 | 27.01088 | 34.26424 | 34853 ft | 582 kts | 117° |
| 2026-04-26 15:16 | 26.98073 | 34.34822 | 34854 ft | 583 kts | 117° |
| 2026-04-26 15:17 | 26.95537 | 34.41868 | 34854 ft | 580 kts | 117° |
| 2026-04-26 15:17 | 26.91988 | 34.51705 | 34858 ft | 581 kts | 117° |
| 2026-04-26 15:18 | 26.88958 | 34.60082 | 34866 ft | 582 kts | 117° |
| 2026-04-26 15:18 | 26.85922 | 34.68463 | 34842 ft | 579 kts | 118° |
| 2026-04-26 15:19 | 26.82872 | 34.76860 | 34843 ft | 580 kts | 118° |
| 2026-04-26 15:19 | 26.79832 | 34.85214 | 34845 ft | 579 kts | 118° |
| 2026-04-26 15:20 | 26.76791 | 34.93549 | 34847 ft | 580 kts | 118° |
| 2026-04-26 15:20 | 26.73706 | 35.01991 | 35471 ft | 586 kts | 118° |
| 2026-04-26 15:21 | 26.72169 | 35.06202 | 36374 ft | 578 kts | 118° |
| 2026-04-26 15:21 | 26.70653 | 35.10344 | 36819 ft | 578 kts | 118° |
| 2026-04-26 15:21 | 26.67602 | 35.18662 | 36852 ft | 576 kts | 118° |
| 2026-04-26 15:22 | 26.64580 | 35.26882 | 36849 ft | 575 kts | 118° |
| 2026-04-26 15:22 | 26.61538 | 35.35142 | 36846 ft | 574 kts | 118° |
| 2026-04-26 15:23 | 26.58492 | 35.43392 | 36837 ft | 576 kts | 118° |
| 2026-04-26 15:23 | 26.55412 | 35.51672 | 36843 ft | 574 kts | 118° |
| 2026-04-26 15:24 | 26.52266 | 35.59908 | 36839 ft | 574 kts | 118° |
| 2026-04-26 15:24 | 26.49135 | 35.68086 | 36812 ft | 573 kts | 119° |
| 2026-04-26 15:25 | 26.46524 | 35.74896 | 36818 ft | 575 kts | 119° |
| 2026-04-26 15:25 | 26.42851 | 35.84463 | 36822 ft | 574 kts | 119° |
| 2026-04-26 15:26 | 26.39711 | 35.92626 | 36823 ft | 572 kts | 119° |
| 2026-04-26 15:26 | 26.36559 | 36.00803 | 36827 ft | 573 kts | 119° |
| 2026-04-26 15:27 | 26.33384 | 36.09026 | 36831 ft | 573 kts | 119° |
| 2026-04-26 15:27 | 26.30205 | 36.17245 | 36834 ft | 572 kts | 119° |
| 2026-04-26 15:28 | 26.27046 | 36.25390 | 36844 ft | 574 kts | 119° |
| 2026-04-26 15:28 | 26.23904 | 36.33481 | 36855 ft | 573 kts | 119° |
| 2026-04-26 15:29 | 26.20739 | 36.41614 | 36864 ft | 573 kts | 119° |
| 2026-04-26 15:30 | 26.13701 | 36.57442 | 36869 ft | 568 kts | 125° |
| 2026-04-26 15:30 | 26.09892 | 36.65161 | 36871 ft | 567 kts | 125° |
| 2026-04-26 15:31 | 26.04201 | 36.76679 | 36847 ft | 567 kts | 126° |
| 2026-04-26 15:32 | 25.99751 | 36.85665 | 36853 ft | 569 kts | 125° |
| 2026-04-26 15:32 | 25.94665 | 36.95922 | 36854 ft | 566 kts | 125° |
| 2026-04-26 15:33 | 25.90832 | 37.03634 | 36861 ft | 566 kts | 125° |
| 2026-04-26 15:33 | 25.87003 | 37.11325 | 36870 ft | 566 kts | 125° |
| 2026-04-26 15:34 | 25.83189 | 37.18975 | 36881 ft | 564 kts | 125° |
| 2026-04-26 15:34 | 25.79354 | 37.26655 | 36892 ft | 566 kts | 124° |
| 2026-04-26 15:35 | 25.75564 | 37.34275 | 36897 ft | 564 kts | 124° |
| 2026-04-26 15:35 | 25.71755 | 37.41923 | 36905 ft | 564 kts | 124° |
| 2026-04-26 15:36 | 25.67938 | 37.49572 | 36917 ft | 565 kts | 124° |
| 2026-04-26 15:36 | 25.64131 | 37.57188 | 36942 ft | 562 kts | 124° |
| 2026-04-26 15:37 | 25.60325 | 37.64789 | 36946 ft | 563 kts | 124° |
| 2026-04-26 15:37 | 25.56509 | 37.72396 | 36940 ft | 564 kts | 124° |
| 2026-04-26 15:38 | 25.52672 | 37.80034 | 36958 ft | 560 kts | 124° |
| 2026-04-26 15:38 | 25.48889 | 37.87550 | 36960 ft | 561 kts | 125° |
| 2026-04-26 15:39 | 25.45072 | 37.95121 | 36974 ft | 561 kts | 124° |
| 2026-04-26 15:39 | 25.42524 | 38.00170 | 36981 ft | 559 kts | 124° |
| 2026-04-26 15:40 | 25.37440 | 38.10223 | 36986 ft | 561 kts | 124° |
| 2026-04-26 15:40 | 25.33612 | 38.17778 | 36985 ft | 561 kts | 124° |
| 2026-04-26 15:41 | 25.29780 | 38.25332 | 36980 ft | 559 kts | 124° |
| 2026-04-26 15:41 | 25.25940 | 38.32886 | 36973 ft | 558 kts | 124° |
| 2026-04-26 15:42 | 25.22135 | 38.40359 | 36980 ft | 560 kts | 124° |
| 2026-04-26 15:42 | 25.18317 | 38.47847 | 36979 ft | 558 kts | 124° |
| 2026-04-26 15:43 | 25.14477 | 38.55361 | 36989 ft | 558 kts | 124° |
| 2026-04-26 15:44 | 25.08725 | 38.66579 | 37011 ft | 559 kts | 125° |
| 2026-04-26 15:44 | 25.02980 | 38.77760 | 37040 ft | 557 kts | 124° |
| 2026-04-26 15:45 | 24.97227 | 38.88932 | 37002 ft | 555 kts | 124° |
| 2026-04-26 15:46 | 24.91469 | 39.00075 | 36948 ft | 554 kts | 124° |
| 2026-04-26 15:46 | 24.88929 | 39.04980 | 36950 ft | 555 kts | 124° |
| 2026-04-26 15:47 | 24.81901 | 39.18527 | 36972 ft | 554 kts | 124° |
| 2026-04-26 15:48 | 24.78053 | 39.25928 | 36971 ft | 553 kts | 124° |
| 2026-04-26 15:48 | 24.74194 | 39.33342 | 37005 ft | 554 kts | 124° |
| 2026-04-26 15:49 | 24.70357 | 39.40702 | 37042 ft | 553 kts | 124° |
| 2026-04-26 15:49 | 24.66520 | 39.48051 | 37058 ft | 552 kts | 124° |
| 2026-04-26 15:50 | 24.62682 | 39.55389 | 37050 ft | 551 kts | 124° |
| 2026-04-26 15:50 | 24.58859 | 39.62688 | 37036 ft | 551 kts | 124° |
| 2026-04-26 15:51 | 24.55510 | 39.70269 | 36999 ft | 557 kts | 111° |
| 2026-04-26 15:51 | 24.53945 | 39.78662 | 37002 ft | 561 kts | 98° |
| 2026-04-26 15:52 | 24.53125 | 39.87229 | 37003 ft | 562 kts | 97° |
| 2026-04-26 15:52 | 24.52319 | 39.95699 | 37016 ft | 560 kts | 97° |
| 2026-04-26 15:53 | 24.51497 | 40.04236 | 37034 ft | 562 kts | 97° |
| 2026-04-26 15:53 | 24.50670 | 40.12735 | 37041 ft | 560 kts | 97° |
| 2026-04-26 15:54 | 24.49833 | 40.21286 | 37052 ft | 562 kts | 97° |
| 2026-04-26 15:54 | 24.48992 | 40.29807 | 37058 ft | 560 kts | 97° |
| 2026-04-26 15:55 | 24.48149 | 40.38302 | 37055 ft | 560 kts | 97° |
| 2026-04-26 15:55 | 24.47303 | 40.46785 | 37055 ft | 558 kts | 97° |
| 2026-04-26 15:56 | 24.46448 | 40.55289 | 37046 ft | 560 kts | 97° |
| 2026-04-26 15:56 | 24.45596 | 40.63722 | 37055 ft | 559 kts | 97° |
| 2026-04-26 15:57 | 24.44733 | 40.72203 | 37047 ft | 558 kts | 97° |
| 2026-04-26 15:57 | 24.43867 | 40.80656 | 37042 ft | 559 kts | 98° |
| 2026-04-26 15:58 | 24.42994 | 40.89140 | 37052 ft | 558 kts | 98° |
| 2026-04-26 15:58 | 24.42122 | 40.97567 | 37045 ft | 559 kts | 98° |
| 2026-04-26 15:59 | 24.41247 | 41.05971 | 37038 ft | 557 kts | 97° |
| 2026-04-26 15:59 | 24.40364 | 41.14420 | 37050 ft | 558 kts | 98° |
| 2026-04-26 16:00 | 24.39481 | 41.22826 | 37046 ft | 558 kts | 98° |
| 2026-04-26 16:00 | 24.38585 | 41.31308 | 37065 ft | 559 kts | 97° |
| 2026-04-26 16:01 | 24.37692 | 41.39717 | 37065 ft | 558 kts | 98° |
| 2026-04-26 16:01 | 24.36790 | 41.48171 | 37077 ft | 558 kts | 97° |
| 2026-04-26 16:02 | 24.35885 | 41.56598 | 37078 ft | 558 kts | 97° |
| 2026-04-26 16:02 | 24.34972 | 41.65066 | 37082 ft | 558 kts | 98° |
| 2026-04-26 16:03 | 24.34055 | 41.73524 | 37065 ft | 558 kts | 98° |
| 2026-04-26 16:03 | 24.33058 | 41.81952 | 37062 ft | 557 kts | 103° |
| 2026-04-26 16:04 | 24.31057 | 41.90191 | 37069 ft | 556 kts | 109° |
| 2026-04-26 16:04 | 24.28925 | 41.98298 | 37069 ft | 556 kts | 109° |
| 2026-04-26 16:05 | 24.26778 | 42.06440 | 37072 ft | 557 kts | 108° |
| 2026-04-26 16:05 | 24.24634 | 42.14558 | 37080 ft | 556 kts | 109° |
| 2026-04-26 16:06 | 24.22474 | 42.22714 | 37081 ft | 556 kts | 108° |
| 2026-04-26 16:06 | 24.20312 | 42.30862 | 37084 ft | 556 kts | 108° |
| 2026-04-26 16:07 | 24.18155 | 42.38975 | 37084 ft | 555 kts | 108° |
| 2026-04-26 16:07 | 24.15980 | 42.47136 | 37089 ft | 555 kts | 108° |
| 2026-04-26 16:08 | 24.13796 | 42.55309 | 37094 ft | 555 kts | 108° |
| 2026-04-26 16:08 | 24.11636 | 42.63375 | 37097 ft | 556 kts | 108° |
| 2026-04-26 16:09 | 24.09462 | 42.71476 | 37080 ft | 555 kts | 109° |
| 2026-04-26 16:09 | 24.07269 | 42.79629 | 37084 ft | 554 kts | 108° |
| 2026-04-26 16:10 | 24.05090 | 42.87711 | 37091 ft | 556 kts | 108° |
| 2026-04-26 16:10 | 24.02908 | 42.95781 | 37100 ft | 555 kts | 108° |
| 2026-04-26 16:11 | 24.00713 | 43.03883 | 37106 ft | 554 kts | 108° |
| 2026-04-26 16:11 | 23.98528 | 43.11931 | 37105 ft | 553 kts | 109° |
| 2026-04-26 16:12 | 23.96334 | 43.19991 | 37108 ft | 554 kts | 108° |
| 2026-04-26 16:12 | 23.93034 | 43.32084 | 37108 ft | 552 kts | 108° |
| 2026-04-26 16:13 | 23.90822 | 43.40163 | 37113 ft | 552 kts | 108° |
| 2026-04-26 16:13 | 23.88621 | 43.48188 | 37122 ft | 551 kts | 108° |
| 2026-04-26 16:14 | 23.86431 | 43.56155 | 37116 ft | 551 kts | 108° |
| 2026-04-26 16:15 | 23.83106 | 43.68213 | 37086 ft | 550 kts | 109° |
| 2026-04-26 16:15 | 23.80902 | 43.76186 | 37087 ft | 550 kts | 108° |
| 2026-04-26 16:16 | 23.77666 | 43.88277 | 37082 ft | 551 kts | 102° |
| 2026-04-26 16:16 | 23.76785 | 43.96628 | 37086 ft | 552 kts | 95° |
| 2026-04-26 16:17 | 23.76177 | 44.04985 | 37088 ft | 551 kts | 95° |
| 2026-04-26 16:17 | 23.75561 | 44.13335 | 37086 ft | 550 kts | 95° |
| 2026-04-26 16:18 | 23.74621 | 44.25897 | 37089 ft | 552 kts | 95° |
| 2026-04-26 16:19 | 23.73669 | 44.38428 | 37099 ft | 552 kts | 95° |
| 2026-04-26 16:20 | 23.72706 | 44.50940 | 37111 ft | 551 kts | 95° |
| 2026-04-26 16:20 | 23.71729 | 44.63500 | 37112 ft | 551 kts | 95° |
| 2026-04-26 16:21 | 23.71077 | 44.71816 | 37100 ft | 550 kts | 95° |
| 2026-04-26 16:21 | 23.70420 | 44.80125 | 37093 ft | 550 kts | 95° |
| 2026-04-26 16:22 | 23.69754 | 44.88495 | 37100 ft | 549 kts | 95° |
| 2026-04-26 16:22 | 23.69091 | 44.96759 | 37113 ft | 550 kts | 95° |
| 2026-04-26 16:23 | 23.68414 | 45.05144 | 37102 ft | 549 kts | 95° |
| 2026-04-26 16:23 | 23.67742 | 45.13414 | 37096 ft | 548 kts | 95° |
| 2026-04-26 16:24 | 23.67061 | 45.21732 | 37103 ft | 549 kts | 95° |
| 2026-04-26 16:24 | 23.66370 | 45.30131 | 37097 ft | 548 kts | 95° |
| 2026-04-26 16:25 | 23.65682 | 45.38434 | 37091 ft | 547 kts | 95° |
| 2026-04-26 16:25 | 23.64990 | 45.46719 | 37092 ft | 547 kts | 95° |
| 2026-04-26 16:26 | 23.64411 | 45.53627 | 37085 ft | 546 kts | 95° |
| 2026-04-26 16:26 | 23.63600 | 45.63231 | 37071 ft | 546 kts | 95° |
| 2026-04-26 16:27 | 23.62896 | 45.71502 | 37048 ft | 545 kts | 95° |
| 2026-04-26 16:27 | 23.62185 | 45.79800 | 37045 ft | 547 kts | 95° |
| 2026-04-26 16:28 | 23.61474 | 45.88040 | 37039 ft | 544 kts | 96° |
| 2026-04-26 16:28 | 23.60758 | 45.96292 | 37037 ft | 545 kts | 95° |
| 2026-04-26 16:29 | 23.60041 | 46.04508 | 37044 ft | 544 kts | 96° |
| 2026-04-26 16:29 | 23.59316 | 46.12764 | 37064 ft | 544 kts | 96° |
| 2026-04-26 16:30 | 23.58592 | 46.20963 | 37079 ft | 543 kts | 95° |
| 2026-04-26 16:30 | 23.57859 | 46.29200 | 37092 ft | 544 kts | 95° |
| 2026-04-26 16:31 | 23.57120 | 46.37465 | 37110 ft | 543 kts | 95° |
| 2026-04-26 16:31 | 23.56382 | 46.45667 | 37123 ft | 544 kts | 95° |
| 2026-04-26 16:32 | 23.55767 | 46.52471 | 37134 ft | 543 kts | 95° |
| 2026-04-26 16:32 | 23.54894 | 46.62054 | 37115 ft | 542 kts | 95° |
| 2026-04-26 16:33 | 23.54132 | 46.70377 | 37079 ft | 542 kts | 96° |
| 2026-04-26 16:33 | 23.53382 | 46.78522 | 37062 ft | 542 kts | 96° |
| 2026-04-26 16:34 | 23.52623 | 46.86704 | 37047 ft | 541 kts | 96° |
| 2026-04-26 16:34 | 23.51862 | 46.94877 | 37036 ft | 542 kts | 96° |
| 2026-04-26 16:35 | 23.51093 | 47.03075 | 37030 ft | 542 kts | 96° |
| 2026-04-26 16:35 | 23.50319 | 47.11290 | 37032 ft | 542 kts | 95° |
| 2026-04-26 16:36 | 23.49548 | 47.19420 | 37034 ft | 540 kts | 96° |
| 2026-04-26 16:36 | 23.48762 | 47.27666 | 37038 ft | 541 kts | 96° |
| 2026-04-26 16:37 | 23.47981 | 47.35811 | 37034 ft | 540 kts | 96° |
| 2026-04-26 16:37 | 23.47324 | 47.42625 | 37029 ft | 539 kts | 95° |
| 2026-04-26 16:38 | 23.46409 | 47.52070 | 37031 ft | 539 kts | 96° |
| 2026-04-26 16:38 | 23.45615 | 47.60222 | 37022 ft | 538 kts | 95° |
| 2026-04-26 16:39 | 23.44824 | 47.68303 | 37008 ft | 539 kts | 96° |
| 2026-04-26 16:39 | 23.44020 | 47.76464 | 37007 ft | 540 kts | 96° |
| 2026-04-26 16:40 | 23.43218 | 47.84576 | 37002 ft | 539 kts | 96° |
| 2026-04-26 16:40 | 23.42408 | 47.92711 | 36999 ft | 539 kts | 96° |
| 2026-04-26 16:41 | 23.41593 | 48.00850 | 36993 ft | 538 kts | 96° |
| 2026-04-26 16:41 | 23.40780 | 48.08937 | 36992 ft | 538 kts | 96° |
| 2026-04-26 16:42 | 23.39960 | 48.17054 | 36991 ft | 538 kts | 96° |
| 2026-04-26 16:42 | 23.39131 | 48.25199 | 36991 ft | 538 kts | 96° |
| 2026-04-26 16:43 | 23.38306 | 48.33282 | 36986 ft | 537 kts | 96° |
| 2026-04-26 16:43 | 23.37814 | 48.41416 | 36989 ft | 536 kts | 91° |
| 2026-04-26 16:44 | 23.37535 | 48.49591 | 36987 ft | 537 kts | 91° |
| 2026-04-26 16:44 | 23.37231 | 48.57757 | 36983 ft | 536 kts | 91° |
| 2026-04-26 16:45 | 23.36913 | 48.65869 | 36978 ft | 536 kts | 92° |
| 2026-04-26 16:45 | 23.36584 | 48.73945 | 36963 ft | 535 kts | 92° |
| 2026-04-26 16:46 | 23.36243 | 48.82148 | 36951 ft | 536 kts | 92° |
| 2026-04-26 16:46 | 23.35896 | 48.90293 | 36939 ft | 536 kts | 92° |
| 2026-04-26 16:47 | 23.35545 | 48.98442 | 36928 ft | 536 kts | 92° |
| 2026-04-26 16:47 | 23.35137 | 49.06555 | 36916 ft | 536 kts | 96° |
| 2026-04-26 16:48 | 23.34046 | 49.14611 | 36919 ft | 536 kts | 98° |
| 2026-04-26 16:48 | 23.32890 | 49.22637 | 36914 ft | 536 kts | 98° |
| 2026-04-26 16:49 | 23.31728 | 49.30687 | 36918 ft | 535 kts | 98° |
| 2026-04-26 16:49 | 23.30569 | 49.38698 | 36912 ft | 537 kts | 98° |
| 2026-04-26 16:50 | 23.29402 | 49.46732 | 36924 ft | 537 kts | 98° |
| 2026-04-26 16:50 | 23.28233 | 49.54758 | 36923 ft | 537 kts | 98° |
| 2026-04-26 16:51 | 23.27060 | 49.62780 | 36923 ft | 537 kts | 98° |
| 2026-04-26 16:51 | 23.25882 | 49.70817 | 36913 ft | 536 kts | 98° |
| 2026-04-26 16:52 | 23.25088 | 49.76216 | 36912 ft | 536 kts | 98° |
| 2026-04-26 16:52 | 23.23494 | 49.87008 | 36916 ft | 538 kts | 98° |
| 2026-04-26 16:53 | 23.22308 | 49.95007 | 36922 ft | 537 kts | 98° |
| 2026-04-26 16:53 | 23.21109 | 50.03070 | 36909 ft | 537 kts | 98° |
| 2026-04-26 16:54 | 23.19904 | 50.11135 | 36909 ft | 539 kts | 98° |
| 2026-04-26 16:54 | 23.18704 | 50.19146 | 36904 ft | 537 kts | 98° |
| 2026-04-26 16:55 | 23.17488 | 50.27232 | 36914 ft | 538 kts | 98° |
| 2026-04-26 16:55 | 23.16283 | 50.35210 | 36912 ft | 537 kts | 98° |
| 2026-04-26 16:56 | 23.14451 | 50.47294 | 36918 ft | 537 kts | 98° |
| 2026-04-26 16:57 | 23.13228 | 50.55329 | 36921 ft | 538 kts | 98° |
| 2026-04-26 16:57 | 23.11395 | 50.67313 | 36910 ft | 535 kts | 98° |
| 2026-04-26 16:58 | 23.10573 | 50.72670 | 36906 ft | 537 kts | 98° |
| 2026-04-26 16:59 | 23.08310 | 50.87342 | 36908 ft | 535 kts | 98° |
| 2026-04-26 17:00 | 23.05840 | 51.03263 | 36905 ft | 537 kts | 98° |
| 2026-04-26 17:00 | 23.03961 | 51.15295 | 36906 ft | 537 kts | 98° |
| 2026-04-26 17:01 | 23.02713 | 51.23254 | 36906 ft | 539 kts | 98° |
| 2026-04-26 17:01 | 23.01449 | 51.31289 | 36906 ft | 536 kts | 98° |
| 2026-04-26 17:02 | 23.00194 | 51.39235 | 36905 ft | 535 kts | 98° |
| 2026-04-26 17:02 | 22.98933 | 51.47200 | 36906 ft | 536 kts | 98° |
| 2026-04-26 17:03 | 22.97662 | 51.55197 | 36908 ft | 535 kts | 98° |
| 2026-04-26 17:03 | 22.96391 | 51.63171 | 36905 ft | 535 kts | 98° |
| 2026-04-26 17:04 | 22.95113 | 51.71159 | 36895 ft | 535 kts | 98° |
| 2026-04-26 17:04 | 22.93843 | 51.79073 | 36893 ft | 535 kts | 98° |
| 2026-04-26 17:05 | 22.92549 | 51.87109 | 36896 ft | 534 kts | 98° |
| 2026-04-26 17:05 | 22.91270 | 51.95026 | 36899 ft | 534 kts | 98° |
| 2026-04-26 17:06 | 22.89988 | 52.02935 | 36900 ft | 534 kts | 98° |
| 2026-04-26 17:06 | 22.88687 | 52.10931 | 36886 ft | 533 kts | 98° |
| 2026-04-26 17:07 | 22.87394 | 52.18858 | 36886 ft | 535 kts | 98° |
| 2026-04-26 17:07 | 22.86101 | 52.26758 | 36894 ft | 535 kts | 98° |
| 2026-04-26 17:08 | 22.84792 | 52.34729 | 36896 ft | 534 kts | 98° |
| 2026-04-26 17:08 | 22.83487 | 52.42655 | 36904 ft | 534 kts | 98° |
| 2026-04-26 17:09 | 22.82478 | 52.49263 | 36899 ft | 531 kts | 93° |
| 2026-04-26 17:09 | 22.82159 | 52.58577 | 36908 ft | 530 kts | 89° |
| 2026-04-26 17:10 | 22.81972 | 52.66582 | 36901 ft | 531 kts | 89° |
| 2026-04-26 17:10 | 22.81773 | 52.74603 | 36898 ft | 531 kts | 89° |
| 2026-04-26 17:11 | 22.81566 | 52.82566 | 36902 ft | 530 kts | 89° |
| 2026-04-26 17:11 | 22.81354 | 52.90532 | 36904 ft | 530 kts | 89° |
| 2026-04-26 17:12 | 22.81023 | 53.02517 | 36905 ft | 530 kts | 89° |
| 2026-04-26 17:13 | 22.80681 | 53.14523 | 36902 ft | 528 kts | 89° |
| 2026-04-26 17:14 | 22.80332 | 53.26454 | 36898 ft | 527 kts | 89° |
| 2026-04-26 17:14 | 22.79974 | 53.38386 | 36902 ft | 527 kts | 89° |
| 2026-04-26 17:15 | 22.79608 | 53.50280 | 36906 ft | 528 kts | 89° |
| 2026-04-26 17:16 | 22.79357 | 53.58275 | 36904 ft | 528 kts | 89° |
| 2026-04-26 17:16 | 22.79103 | 53.66233 | 36903 ft | 528 kts | 89° |
| 2026-04-26 17:17 | 22.78846 | 53.74154 | 36896 ft | 527 kts | 89° |
| 2026-04-26 17:17 | 22.78584 | 53.82122 | 36897 ft | 527 kts | 89° |
| 2026-04-26 17:18 | 22.78319 | 53.90064 | 36905 ft | 528 kts | 89° |
| 2026-04-26 17:18 | 22.78125 | 53.98008 | 36905 ft | 524 kts | 84° |
| 2026-04-26 17:19 | 22.80028 | 54.09590 | 36912 ft | 518 kts | 73° |
| 2026-04-26 17:19 | 22.81589 | 54.17200 | 36912 ft | 518 kts | 73° |
| 2026-04-26 17:20 | 22.82623 | 54.22270 | 36913 ft | 518 kts | 73° |
| 2026-04-26 17:20 | 22.84696 | 54.32479 | 36913 ft | 518 kts | 73° |
| 2026-04-26 17:21 | 22.86230 | 54.40070 | 36912 ft | 519 kts | 73° |
| 2026-04-26 17:21 | 22.87781 | 54.47771 | 36905 ft | 516 kts | 73° |
| 2026-04-26 17:22 | 22.89322 | 54.55436 | 36900 ft | 517 kts | 73° |
| 2026-04-26 17:22 | 22.90848 | 54.63057 | 36898 ft | 516 kts | 73° |
| 2026-04-26 17:23 | 22.92371 | 54.70679 | 36886 ft | 516 kts | 74° |
| 2026-04-26 17:23 | 22.93897 | 54.78338 | 36886 ft | 516 kts | 74° |
| 2026-04-26 17:24 | 22.95423 | 54.86018 | 36891 ft | 516 kts | 74° |
| 2026-04-26 17:24 | 22.96934 | 54.93639 | 36891 ft | 517 kts | 74° |
| 2026-04-26 17:25 | 22.98451 | 55.01317 | 36894 ft | 518 kts | 74° |
| 2026-04-26 17:25 | 22.99993 | 55.08983 | 36884 ft | 516 kts | 70° |
| 2026-04-26 17:26 | 23.02742 | 55.16097 | 36891 ft | 504 kts | 54° |
| 2026-04-26 17:26 | 23.07037 | 55.21970 | 36886 ft | 491 kts | 38° |
| 2026-04-26 17:27 | 23.12515 | 55.26326 | 36891 ft | 479 kts | 23° |
| 2026-04-26 17:27 | 23.18702 | 55.28945 | 36897 ft | 471 kts | 10° |
| 2026-04-26 17:28 | 23.25051 | 55.30758 | 36897 ft | 471 kts | 9° |
| 2026-04-26 17:28 | 23.31418 | 55.32595 | 36901 ft | 471 kts | 10° |
| 2026-04-26 17:29 | 23.36714 | 55.34139 | 36903 ft | 470 kts | 10° |
| 2026-04-26 17:29 | 23.44143 | 55.36320 | 36903 ft | 472 kts | 10° |
| 2026-04-26 17:30 | 23.50542 | 55.38207 | 36917 ft | 472 kts | 9° |
| 2026-04-26 17:30 | 23.56912 | 55.40089 | 36917 ft | 472 kts | 9° |
| 2026-04-26 17:31 | 23.63328 | 55.41987 | 36919 ft | 473 kts | 9° |
| 2026-04-26 17:31 | 23.69706 | 55.43876 | 36919 ft | 473 kts | 9° |
| 2026-04-26 17:32 | 23.76074 | 55.45764 | 36922 ft | 474 kts | 9° |
| 2026-04-26 17:32 | 23.79252 | 55.46709 | 36757 ft | 469 kts | 9° |
| 2026-04-26 17:32 | 23.82441 | 55.47657 | 35920 ft | 471 kts | 9° |
| 2026-04-26 17:33 | 23.85627 | 55.48602 | 34961 ft | 475 kts | 9° |
| 2026-04-26 17:33 | 23.88848 | 55.49558 | 34100 ft | 477 kts | 9° |
| 2026-04-26 17:33 | 23.92053 | 55.50509 | 33280 ft | 477 kts | 9° |
| 2026-04-26 17:34 | 23.98484 | 55.52652 | 31633 ft | 485 kts | 17° |
| 2026-04-26 17:34 | 24.01513 | 55.54324 | 30784 ft | 493 kts | 26° |
| 2026-04-26 17:34 | 24.04325 | 55.56514 | 30243 ft | 493 kts | 35° |
| 2026-04-26 17:34 | 24.06904 | 55.58998 | 29777 ft | 489 kts | 37° |
| 2026-04-26 17:35 | 24.09445 | 55.61514 | 29257 ft | 492 kts | 38° |
| 2026-04-26 17:35 | 24.11996 | 55.64039 | 28716 ft | 503 kts | 38° |
| 2026-04-26 17:35 | 24.14581 | 55.66605 | 28151 ft | 503 kts | 39° |
| 2026-04-26 17:35 | 24.17176 | 55.69182 | 27572 ft | 499 kts | 39° |
| 2026-04-26 17:36 | 24.19762 | 55.71751 | 27000 ft | 495 kts | 39° |
| 2026-04-26 17:36 | 24.22314 | 55.74288 | 26421 ft | 491 kts | 39° |
| 2026-04-26 17:36 | 24.24863 | 55.76821 | 25847 ft | 487 kts | 39° |
| 2026-04-26 17:36 | 24.27355 | 55.79299 | 25273 ft | 483 kts | 39° |
| 2026-04-26 17:37 | 24.29848 | 55.81780 | 24692 ft | 479 kts | 40° |
| 2026-04-26 17:37 | 24.32315 | 55.84237 | 24115 ft | 476 kts | 40° |
| 2026-04-26 17:37 | 24.34764 | 55.86675 | 23519 ft | 472 kts | 40° |
| 2026-04-26 17:38 | 24.39616 | 55.91510 | 22352 ft | 465 kts | 40° |
| 2026-04-26 17:38 | 24.42011 | 55.93897 | 21762 ft | 461 kts | 40° |
| 2026-04-26 17:38 | 24.44392 | 55.96272 | 21168 ft | 457 kts | 40° |
| 2026-04-26 17:38 | 24.46732 | 55.98607 | 20597 ft | 453 kts | 40° |
| 2026-04-26 17:39 | 24.49056 | 56.00927 | 20024 ft | 449 kts | 41° |
| 2026-04-26 17:39 | 24.51354 | 56.03223 | 19448 ft | 445 kts | 41° |
| 2026-04-26 17:39 | 24.53636 | 56.05504 | 18880 ft | 441 kts | 41° |
| 2026-04-26 17:39 | 24.55927 | 56.07800 | 18302 ft | 437 kts | 41° |
| 2026-04-26 17:40 | 24.58235 | 56.09879 | 17716 ft | 432 kts | 33° |
| 2026-04-26 17:40 | 24.59089 | 56.10490 | 17522 ft | 430 kts | 30° |
| 2026-04-26 17:40 | 24.63654 | 56.12615 | 16555 ft | 421 kts | 13° |
| 2026-04-26 17:40 | 24.66497 | 56.13253 | 15965 ft | 417 kts | 8° |
| 2026-04-26 17:41 | 24.69401 | 56.13814 | 15363 ft | 414 kts | 8° |
| 2026-04-26 17:41 | 24.72272 | 56.14357 | 14765 ft | 411 kts | 8° |
| 2026-04-26 17:41 | 24.75086 | 56.14878 | 14175 ft | 408 kts | 6° |
| 2026-04-26 17:41 | 24.77934 | 56.15041 | 13638 ft | 401 kts | 355° |
| 2026-04-26 17:42 | 24.80655 | 56.14637 | 13124 ft | 394 kts | 344° |
| 2026-04-26 17:42 | 24.83254 | 56.13667 | 12958 ft | 376 kts | 335° |
| 2026-04-26 17:42 | 24.85597 | 56.12559 | 12864 ft | 361 kts | 334° |
| 2026-04-26 17:42 | 24.87904 | 56.11453 | 12731 ft | 348 kts | 334° |
| 2026-04-26 17:43 | 24.90084 | 56.10400 | 12588 ft | 336 kts | 334° |
| 2026-04-26 17:43 | 24.92213 | 56.09364 | 12440 ft | 325 kts | 334° |
| 2026-04-26 17:43 | 24.94250 | 56.08358 | 12291 ft | 314 kts | 331° |
| 2026-04-26 17:43 | 24.95967 | 56.06980 | 12227 ft | 296 kts | 310° |
| 2026-04-26 17:44 | 24.97065 | 56.05161 | 12022 ft | 281 kts | 291° |
| 2026-04-26 17:44 | 24.97760 | 56.03118 | 11732 ft | 277 kts | 288° |
| 2026-04-26 17:44 | 24.98406 | 56.01083 | 11418 ft | 275 kts | 288° |
| 2026-04-26 17:44 | 24.99051 | 55.99046 | 11098 ft | 274 kts | 288° |
| 2026-04-26 17:45 | 24.99712 | 55.96953 | 10771 ft | 272 kts | 288° |
| 2026-04-26 17:45 | 25.00316 | 55.95040 | 10461 ft | 270 kts | 288° |
| 2026-04-26 17:45 | 25.00934 | 55.93085 | 10161 ft | 268 kts | 288° |
| 2026-04-26 17:45 | 25.01541 | 55.91159 | 9861 ft | 266 kts | 288° |
| 2026-04-26 17:46 | 25.02154 | 55.89216 | 9534 ft | 265 kts | 288° |
| 2026-04-26 17:46 | 25.02753 | 55.87315 | 9242 ft | 263 kts | 288° |
| 2026-04-26 17:46 | 25.03353 | 55.85409 | 8912 ft | 262 kts | 288° |
| 2026-04-26 17:46 | 25.03952 | 55.83508 | 8632 ft | 259 kts | 288° |
| 2026-04-26 17:47 | 25.04550 | 55.81605 | 8316 ft | 259 kts | 289° |
| 2026-04-26 17:47 | 25.04754 | 55.80958 | 8206 ft | 258 kts | 289° |
| 2026-04-26 17:47 | 25.05733 | 55.77842 | 7648 ft | 259 kts | 289° |
| 2026-04-26 17:47 | 25.06331 | 55.75938 | 7113 ft | 266 kts | 289° |
| 2026-04-26 17:48 | 25.06937 | 55.74005 | 6834 ft | 263 kts | 289° |
| 2026-04-26 17:48 | 25.07540 | 55.72083 | 6525 ft | 261 kts | 290° |
| 2026-04-26 17:48 | 25.08131 | 55.70195 | 6233 ft | 259 kts | 290° |
| 2026-04-26 17:48 | 25.08718 | 55.68322 | 5934 ft | 257 kts | 290° |
| 2026-04-26 17:49 | 25.09305 | 55.66447 | 5621 ft | 255 kts | 290° |
| 2026-04-26 17:49 | 25.09885 | 55.64591 | 5261 ft | 256 kts | 290° |
| 2026-04-26 17:49 | 25.10618 | 55.62823 | 4945 ft | 254 kts | 300° |
| 2026-04-26 17:49 | 25.11543 | 55.61135 | 4516 ft | 255 kts | 301° |
| 2026-04-26 17:50 | 25.12463 | 55.59499 | 4229 ft | 251 kts | 302° |
| 2026-04-26 17:50 | 25.13396 | 55.57831 | 3840 ft | 248 kts | 301° |
| 2026-04-26 17:50 | 25.14257 | 55.56219 | 3523 ft | 240 kts | 300° |
| 2026-04-26 17:50 | 25.15108 | 55.54626 | 3210 ft | 239 kts | 301° |
| 2026-04-26 17:51 | 25.15973 | 55.53056 | 2895 ft | 236 kts | 302° |
| 2026-04-26 17:51 | 25.16836 | 55.51523 | 2589 ft | 239 kts | 302° |
| 2026-04-26 17:51 | 25.17713 | 55.49972 | 2265 ft | 227 kts | 302° |
| 2026-04-26 17:51 | 25.18519 | 55.48551 | 1977 ft | 217 kts | 302° |
| 2026-04-26 17:52 | 25.19307 | 55.47152 | 1695 ft | 202 kts | 301° |
| 2026-04-26 17:52 | 25.20023 | 55.45869 | 1435 ft | 185 kts | 301° |
| 2026-04-26 17:52 | 25.20673 | 55.44704 | 1191 ft | 169 kts | 301° |
| 2026-04-26 17:52 | 25.21256 | 55.43658 | 977 ft | 153 kts | 300° |
| 2026-04-26 17:53 | 25.21801 | 55.42681 | 783 ft | 148 kts | 300° |
| 2026-04-26 17:53 | 25.22327 | 55.41739 | 550 ft | 145 kts | 301° |
| 2026-04-26 17:53 | 25.22852 | 55.40797 | 362 ft | 145 kts | 300° |
| 2026-04-26 17:54 | 25.23886 | 55.38950 | 62 ft | 139 kts | 301° |
| 2026-04-26 17:54 | 25.24316 | 55.38176 | 59 ft | 94 kts | 301° |
| 2026-04-26 17:54 | 25.24581 | 55.37702 | 56 ft | 49 kts | 302° |
| 2026-04-26 17:54 | 25.24703 | 55.37485 | 55 ft | 27 kts | 301° |
| 2026-04-26 17:55 | 25.24770 | 55.37309 | 54 ft | 25 kts | 282° |
| 2026-04-26 17:55 | 25.24785 | 55.37128 | 52 ft | 16 kts | 272° |
| 2026-04-26 17:55 | 25.24786 | 55.37064 | 52 ft | 0 kts | 270° |
| 2026-04-26 17:55 | 25.24787 | 55.37048 | 52 ft | 6 kts | 272° |
| 2026-04-26 17:56 | 25.24793 | 55.36991 | 51 ft | 8 kts | 282° |
| 2026-04-26 17:56 | 25.24833 | 55.36882 | 52 ft | 8 kts | 296° |
| 2026-04-26 17:57 | 25.24865 | 55.36760 | 52 ft | 8 kts | 281° |
| 2026-04-26 17:57 | 25.24881 | 55.36700 | 52 ft | 8 kts | 291° |
| 2026-04-26 17:57 | 25.24910 | 55.36631 | 51 ft | 10 kts | 298° |
| 2026-04-26 17:57 | 25.24945 | 55.36566 | 50 ft | 10 kts | 302° |
| 2026-04-26 17:58 | 25.25099 | 55.36288 | 40 ft | 15 kts | 301° |
| 2026-04-26 17:59 | 25.25184 | 55.36133 | 44 ft | 10 kts | 301° |
| 2026-04-26 17:59 | 25.25225 | 55.36060 | 42 ft | 12 kts | 302° |
| 2026-04-26 17:59 | 25.25273 | 55.35972 | 40 ft | 12 kts | 301° |
| 2026-04-26 17:59 | 25.25314 | 55.35898 | 42 ft | 10 kts | 302° |
| 2026-04-26 18:00 | 25.25350 | 55.35836 | 42 ft | 9 kts | 301° |
| 2026-04-26 18:00 | 25.25384 | 55.35773 | 42 ft | 9 kts | 301° |
| 2026-04-26 18:00 | 25.25422 | 55.35703 | 40 ft | 11 kts | 301° |
| 2026-04-26 18:00 | 25.25452 | 55.35651 | 39 ft | 4 kts | 302° |
| 2026-04-26 18:01 | 25.25458 | 55.35639 | 38 ft | 0 kts | 303° |
| 2026-04-26 18:02 | 25.25459 | 55.35637 | 38 ft | 1 kts | 303° |
| 2026-04-26 18:03 | 25.25467 | 55.35622 | 38 ft | 2 kts | 292° |
| 2026-04-26 18:03 | 25.25460 | 55.35600 | 36 ft | 5 kts | 227° |
| 2026-04-26 18:03 | 25.25419 | 55.35568 | 33 ft | 7 kts | 213° |
| 2026-04-26 18:03 | 25.25380 | 55.35542 | 33 ft | 6 kts | 212° |
| 2026-04-26 18:04 | 25.25348 | 55.35520 | 33 ft | 3 kts | 212° |
| 2026-04-26 18:04 | 25.25327 | 55.35506 | 33 ft | 2 kts | 212° |
| 2026-04-26 18:04 | 25.25320 | 55.35501 | 33 ft | 0 kts | 212° |